Wetterdaten: Donnerstag, 16.02.2023
Datum Zeit Temp. Aussen Temp. o. S. Temp +5cm Feuchte Auss Luftdruck Regen Sonnenschein Regendauer Solar Windben Empfang
16.02.2023 00:00 4,9 C 3,9 C 0,6 C 88 % 1025,6 hPa 0,0 l/m 0 min 0 min 0 W/m 12,9 km/h (3 Bft) 70,21 %
16.02.2023 00:02 4,9 C 3,9 C 0,6 C 88 % 1025,7 hPa 0,0 l/m 0 min 0 min 0 W/m 12,9 km/h (3 Bft) 13,33 %
16.02.2023 00:04 4,9 C 3,9 C 0,6 C 88 % 1025,6 hPa 0,0 l/m 0 min 0 min 0 W/m 12,9 km/h (3 Bft) 72,09 %
16.02.2023 00:05 4,9 C 3,9 C 0,6 C 88 % 1025,6 hPa 0,0 l/m 0 min 0 min 0 W/m 12,9 km/h (3 Bft) 51,75 %
16.02.2023 00:10 4,8 C 3,9 C 0,6 C 88 % 1025,6 hPa 0,0 l/m 0 min 0 min 0 W/m 3,2 km/h (1 Bft) 100,00 %
16.02.2023 00:12 4,8 C 3,9 C 0,6 C 88 % 1025,6 hPa 0,0 l/m 0 min 0 min 0 W/m 6,4 km/h (2 Bft) 100,00 %
16.02.2023 00:16 4,8 C 3,9 C 0,6 C 88 % 1025,6 hPa 0,0 l/m 0 min 0 min 0 W/m 6,4 km/h (2 Bft) 91,49 %
16.02.2023 00:18 4,7 C 3,9 C 0,6 C 88 % 1025,6 hPa 0,0 l/m 0 min 0 min 0 W/m 6,4 km/h (2 Bft) 97,87 %
16.02.2023 00:20 4,7 C 3,9 C 0,6 C 88 % 1025,6 hPa 0,0 l/m 0 min 0 min 0 W/m 6,4 km/h (2 Bft) 100,00 %
16.02.2023 00:22 4,7 C 3,9 C 0,6 C 88 % 1025,6 hPa 0,0 l/m 0 min 0 min 0 W/m 6,4 km/h (2 Bft) 100,00 %
16.02.2023 00:24 4,7 C 3,9 C 0,6 C 88 % 1025,6 hPa 0,0 l/m 0 min 0 min 0 W/m 12,9 km/h (3 Bft) 95,65 %
16.02.2023 00:26 4,6 C 3,9 C 0,6 C 88 % 1025,6 hPa 0,0 l/m 0 min 0 min 0 W/m 6,4 km/h (2 Bft) 97,87 %
16.02.2023 00:28 4,6 C 3,9 C 0,6 C 88 % 1025,6 hPa 0,0 l/m 0 min 0 min 0 W/m 12,9 km/h (3 Bft) 95,74 %
16.02.2023 00:30 4,6 C 3,9 C 0,6 C 88 % 1025,6 hPa 0,0 l/m 0 min 0 min 0 W/m 12,9 km/h (3 Bft) 97,92 %
16.02.2023 00:32 4,6 C 3,9 C 0,6 C 88 % 1025,6 hPa 0,0 l/m 0 min 0 min 0 W/m 12,9 km/h (3 Bft) 97,87 %
16.02.2023 00:34 4,6 C 3,3 C 0,6 C 88 % 1025,6 hPa 0,0 l/m 0 min 0 min 0 W/m 12,9 km/h (3 Bft) 97,87 %
16.02.2023 00:36 4,5 C 3,3 C 0,6 C 88 % 1025,6 hPa 0,0 l/m 0 min 0 min 0 W/m 9,7 km/h (2 Bft) 95,65 %
16.02.2023 00:38 4,5 C 3,3 C 0,6 C 88 % 1025,6 hPa 0,0 l/m 0 min 0 min 0 W/m 12,9 km/h (3 Bft) 95,74 %
16.02.2023 00:40 4,4 C 3,3 C 0,6 C 88 % 1025,6 hPa 0,0 l/m 0 min 0 min 0 W/m 12,9 km/h (3 Bft) 95,74 %
16.02.2023 00:42 4,4 C 3,3 C 0,0 C 88 % 1025,6 hPa 0,0 l/m 0 min 0 min 0 W/m 6,4 km/h (2 Bft) 93,62 %
16.02.2023 00:44 4,4 C 3,3 C 0,0 C 89 % 1025,6 hPa 0,0 l/m 0 min 0 min 0 W/m 12,9 km/h (3 Bft) 78,72 %
16.02.2023 00:46 4,3 C 3,3 C 0,0 C 89 % 1025,6 hPa 0,0 l/m 0 min 0 min 0 W/m 12,9 km/h (3 Bft) 93,62 %
16.02.2023 00:48 4,3 C 3,3 C 0,0 C 89 % 1025,6 hPa 0,0 l/m 0 min 0 min 0 W/m 12,9 km/h (3 Bft) 95,65 %
16.02.2023 00:50 4,3 C 3,3 C 0,0 C 89 % 1025,6 hPa 0,0 l/m 0 min 0 min 0 W/m 16,1 km/h (3 Bft) 97,87 %
16.02.2023 00:52 4,3 C 3,3 C 0,0 C 89 % 1025,5 hPa 0,0 l/m 0 min 0 min 0 W/m 12,9 km/h (3 Bft) 97,87 %
16.02.2023 00:54 4,3 C 3,3 C 0,0 C 89 % 1025,5 hPa 0,0 l/m 0 min 0 min 0 W/m 12,9 km/h (3 Bft) 97,87 %
16.02.2023 00:56 4,2 C 3,3 C 0,0 C 89 % 1025,6 hPa 0,0 l/m 0 min 0 min 0 W/m 12,9 km/h (3 Bft) 93,62 %
16.02.2023 00:58 4,2 C 3,3 C 0,0 C 89 % 1025,5 hPa 0,0 l/m 0 min 0 min 0 W/m 6,4 km/h (2 Bft) 91,49 %
16.02.2023 01:00 4,2 C 3,3 C 0,0 C 89 % 1025,5 hPa 0,0 l/m 0 min 0 min 0 W/m 12,9 km/h (3 Bft) 97,87 %
16.02.2023 01:02 4,1 C 3,3 C 0,0 C 89 % 1025,5 hPa 0,0 l/m 0 min 0 min 0 W/m 12,9 km/h (3 Bft) 95,65 %
16.02.2023 01:04 4,1 C 3,3 C 0,0 C 89 % 1025,5 hPa 0,0 l/m 0 min 0 min 0 W/m 12,9 km/h (3 Bft) 97,87 %
16.02.2023 01:06 4,1 C 3,3 C 0,0 C 89 % 1025,5 hPa 0,0 l/m 0 min 0 min 0 W/m 9,7 km/h (2 Bft) 97,87 %
16.02.2023 01:08 4,1 C 3,3 C 0,0 C 89 % 1025,5 hPa 0,0 l/m 0 min 0 min 0 W/m 6,4 km/h (2 Bft) 93,62 %
16.02.2023 01:10 4,0 C 3,3 C 0,0 C 89 % 1025,5 hPa 0,0 l/m 0 min 0 min 0 W/m 12,9 km/h (3 Bft) 97,87 %
16.02.2023 01:12 4,0 C 3,3 C 0,0 C 89 % 1025,6 hPa 0,0 l/m 0 min 0 min 0 W/m 9,7 km/h (2 Bft) 97,87 %
16.02.2023 01:14 3,9 C 2,8 C 0,0 C 89 % 1025,6 hPa 0,0 l/m 0 min 0 min 0 W/m 6,4 km/h (2 Bft) 97,87 %
16.02.2023 01:16 3,9 C 2,8 C 0,0 C 89 % 1025,6 hPa 0,0 l/m 0 min 0 min 0 W/m 12,9 km/h (3 Bft) 95,45 %
16.02.2023 01:18 3,9 C 2,8 C 0,0 C 89 % 1025,5 hPa 0,0 l/m 0 min 0 min 0 W/m 6,4 km/h (2 Bft) 95,74 %
16.02.2023 01:20 3,9 C 2,8 C 0,0 C 89 % 1025,5 hPa 0,0 l/m 0 min 0 min 0 W/m 12,9 km/h (3 Bft) 97,87 %
16.02.2023 01:22 3,9 C 2,8 C 0,0 C 89 % 1025,5 hPa 0,0 l/m 0 min 0 min 0 W/m 12,9 km/h (3 Bft) 97,87 %
16.02.2023 01:24 3,8 C 2,8 C 0,0 C 89 % 1025,5 hPa 0,0 l/m 0 min 0 min 0 W/m 12,9 km/h (3 Bft) 91,49 %
16.02.2023 01:26 3,8 C 2,8 C 0,0 C 90 % 1025,4 hPa 0,0 l/m 0 min 0 min 0 W/m 16,1 km/h (3 Bft) 95,74 %
16.02.2023 01:28 3,8 C 2,8 C 0,0 C 90 % 1025,4 hPa 0,0 l/m 0 min 0 min 0 W/m 12,9 km/h (3 Bft) 93,48 %
16.02.2023 01:30 3,8 C 2,8 C 0,0 C 90 % 1025,4 hPa 0,0 l/m 0 min 0 min 0 W/m 6,4 km/h (2 Bft) 97,87 %
16.02.2023 01:32 3,8 C 2,8 C 0,0 C 90 % 1025,4 hPa 0,0 l/m 0 min 0 min 0 W/m 6,4 km/h (2 Bft) 91,49 %
16.02.2023 01:34 3,8 C 2,8 C 0,0 C 90 % 1025,4 hPa 0,0 l/m 0 min 0 min 0 W/m 6,4 km/h (2 Bft) 93,62 %
16.02.2023 01:36 3,8 C 2,8 C 0,0 C 90 % 1025,4 hPa 0,0 l/m 0 min 0 min 0 W/m 6,4 km/h (2 Bft) 95,74 %
16.02.2023 01:38 3,8 C 2,8 C 0,0 C 90 % 1025,4 hPa 0,0 l/m 0 min 0 min 0 W/m 6,4 km/h (2 Bft) 93,62 %
16.02.2023 01:40 3,7 C 2,8 C 0,0 C 90 % 1025,4 hPa 0,0 l/m 0 min 0 min 0 W/m 6,4 km/h (2 Bft) 86,96 %
16.02.2023 01:42 3,7 C 2,8 C 0,0 C 90 % 1025,3 hPa 0,0 l/m 0 min 0 min 0 W/m 6,4 km/h (2 Bft) 89,36 %
16.02.2023 01:44 3,7 C 2,8 C 0,0 C 90 % 1025,3 hPa 0,0 l/m 0 min 0 min 0 W/m 6,4 km/h (2 Bft) 89,36 %
16.02.2023 01:46 3,7 C 2,8 C 0,0 C 90 % 1025,3 hPa 0,0 l/m 0 min 0 min 0 W/m 12,9 km/h (3 Bft) 95,74 %
16.02.2023 01:48 3,7 C 2,8 C 0,0 C 90 % 1025,2 hPa 0,0 l/m 0 min 0 min 0 W/m 9,7 km/h (2 Bft) 95,74 %
16.02.2023 01:50 3,7 C 2,8 C -0,6 C 90 % 1025,2 hPa 0,0 l/m 0 min 0 min 0 W/m 12,9 km/h (3 Bft) 95,83 %
16.02.2023 01:52 3,6 C 2,8 C -0,6 C 90 % 1025,2 hPa 0,0 l/m 0 min 0 min 0 W/m 12,9 km/h (3 Bft) 95,74 %
16.02.2023 01:54 3,6 C 2,8 C -0,6 C 90 % 1025,2 hPa 0,0 l/m 0 min 0 min 0 W/m 6,4 km/h (2 Bft) 31,25 %
16.02.2023 01:56 3,6 C 2,8 C -0,6 C 90 % 1025,3 hPa 0,0 l/m 0 min 0 min 0 W/m 6,4 km/h (2 Bft) 100,00 %
16.02.2023 01:58 3,6 C 2,8 C -0,6 C 90 % 1025,3 hPa 0,0 l/m 0 min 0 min 0 W/m 6,4 km/h (2 Bft) 89,36 %
16.02.2023 02:00 3,6 C 2,8 C -0,6 C 90 % 1025,3 hPa 0,0 l/m 0 min 0 min 0 W/m 6,4 km/h (2 Bft) 95,74 %
16.02.2023 02:02 3,6 C 2,8 C -0,6 C 90 % 1025,2 hPa 0,0 l/m 0 min 0 min 0 W/m 6,4 km/h (2 Bft) 89,36 %
16.02.2023 02:04 3,5 C 2,8 C -0,6 C 90 % 1025,3 hPa 0,0 l/m 0 min 0 min 0 W/m 6,4 km/h (2 Bft) 89,36 %
16.02.2023 02:06 3,5 C 2,8 C -0,6 C 90 % 1025,3 hPa 0,0 l/m 0 min 0 min 0 W/m 3,2 km/h (1 Bft) 94,83 %
16.02.2023 02:08 3,5 C 2,8 C -0,6 C 90 % 1025,3 hPa 0,0 l/m 0 min 0 min 0 W/m 3,2 km/h (1 Bft) 97,14 %
16.02.2023 02:10 3,5 C 2,8 C -0,6 C 90 % 1025,3 hPa 0,0 l/m 0 min 0 min 0 W/m 3,2 km/h (1 Bft) 97,92 %
16.02.2023 02:14 3,4 C 2,2 C -0,6 C 90 % 1025,3 hPa 0,0 l/m 0 min 0 min 0 W/m 12,9 km/h (3 Bft) 96,49 %
16.02.2023 02:16 3,4 C 2,2 C -0,6 C 90 % 1025,3 hPa 0,0 l/m 0 min 0 min 0 W/m 3,2 km/h (1 Bft) 95,74 %
16.02.2023 02:18 3,4 C 2,2 C -0,6 C 90 % 1025,3 hPa 0,0 l/m 0 min 0 min 0 W/m 6,4 km/h (2 Bft) 100,00 %
16.02.2023 02:20 3,4 C 2,2 C -0,6 C 90 % 1025,3 hPa 0,0 l/m 0 min 0 min 0 W/m 6,4 km/h (2 Bft) 97,87 %
16.02.2023 02:22 3,3 C 2,2 C -0,6 C 90 % 1025,2 hPa 0,0 l/m 0 min 0 min 0 W/m 6,4 km/h (2 Bft) 95,56 %
16.02.2023 02:24 3,3 C 2,2 C -0,6 C 90 % 1025,3 hPa 0,0 l/m 0 min 0 min 0 W/m 6,4 km/h (2 Bft) 100,00 %
16.02.2023 02:26 3,3 C 2,2 C -0,6 C 90 % 1025,3 hPa 0,0 l/m 0 min 0 min 0 W/m 6,4 km/h (2 Bft) 100,00 %
16.02.2023 02:28 3,3 C 2,2 C -0,6 C 90 % 1025,3 hPa 0,0 l/m 0 min 0 min 0 W/m 3,2 km/h (1 Bft) 94,29 %
16.02.2023 02:30 3,3 C 2,2 C -0,6 C 90 % 1025,2 hPa 0,0 l/m 0 min 0 min 0 W/m 6,4 km/h (2 Bft) 89,36 %
16.02.2023 02:32 3,2 C 2,2 C -1,1 C 90 % 1025,2 hPa 0,0 l/m 0 min 0 min 0 W/m 12,9 km/h (3 Bft) 100,00 %
16.02.2023 02:34 3,2 C 2,2 C -1,1 C 90 % 1025,1 hPa 0,0 l/m 0 min 0 min 0 W/m 12,9 km/h (3 Bft) 100,00 %
16.02.2023 02:36 3,2 C 2,2 C -1,1 C 90 % 1025,1 hPa 0,0 l/m 0 min 0 min 0 W/m 6,4 km/h (2 Bft) 100,00 %
16.02.2023 02:38 3,2 C 2,2 C -0,6 C 90 % 1025,1 hPa 0,0 l/m 0 min 0 min 0 W/m 12,9 km/h (3 Bft) 100,00 %
16.02.2023 02:40 3,1 C 2,2 C -0,6 C 90 % 1025,1 hPa 0,0 l/m 0 min 0 min 0 W/m 6,4 km/h (2 Bft) 95,74 %
16.02.2023 02:42 3,1 C 2,2 C -0,6 C 90 % 1025,1 hPa 0,0 l/m 0 min 0 min 0 W/m 6,4 km/h (2 Bft) 97,87 %
16.02.2023 02:44 3,1 C 2,2 C -1,1 C 90 % 1025,1 hPa 0,0 l/m 0 min 0 min 0 W/m 12,9 km/h (3 Bft) 100,00 %
16.02.2023 02:46 3,1 C 2,2 C -1,1 C 90 % 1025,1 hPa 0,0 l/m 0 min 0 min 0 W/m 12,9 km/h (3 Bft) 100,00 %
16.02.2023 02:48 3,1 C 2,2 C -1,1 C 90 % 1025,1 hPa 0,0 l/m 0 min 0 min 0 W/m 12,9 km/h (3 Bft) 93,48 %
16.02.2023 02:50 3,1 C 2,2 C -1,1 C 91 % 1025,1 hPa 0,0 l/m 0 min 0 min 0 W/m 6,4 km/h (2 Bft) 100,00 %
16.02.2023 02:52 3,0 C 2,2 C -1,1 C 91 % 1025,1 hPa 0,0 l/m 0 min 0 min 0 W/m 6,4 km/h (2 Bft) 97,87 %
16.02.2023 02:54 3,0 C 2,2 C -1,1 C 91 % 1025,1 hPa 0,0 l/m 0 min 0 min 0 W/m 16,1 km/h (3 Bft) 97,87 %
16.02.2023 02:56 3,0 C 2,2 C -1,1 C 91 % 1025,1 hPa 0,0 l/m 0 min 0 min 0 W/m 6,4 km/h (2 Bft) 100,00 %
16.02.2023 02:58 3,0 C 2,2 C -1,1 C 91 % 1025,1 hPa 0,0 l/m 0 min 0 min 0 W/m 6,4 km/h (2 Bft) 97,87 %
16.02.2023 03:00 2,9 C 2,2 C -1,1 C 91 % 1025,1 hPa 0,0 l/m 0 min 0 min 0 W/m 6,4 km/h (2 Bft) 100,00 %
16.02.2023 03:02 2,9 C 2,2 C -1,1 C 91 % 1025,1 hPa 0,0 l/m 0 min 0 min 0 W/m 6,4 km/h (2 Bft) 97,87 %
16.02.2023 03:04 2,9 C 2,2 C -1,1 C 91 % 1025,1 hPa 0,0 l/m 0 min 0 min 0 W/m 6,4 km/h (2 Bft) 97,87 %
16.02.2023 03:06 2,9 C 2,2 C -1,1 C 91 % 1025,1 hPa 0,0 l/m 0 min 0 min 0 W/m 6,4 km/h (2 Bft) 96,61 %
16.02.2023 03:08 2,9 C 2,2 C -1,1 C 91 % 1025,1 hPa 0,0 l/m 0 min 0 min 0 W/m 3,2 km/h (1 Bft) 100,00 %
16.02.2023 03:10 2,9 C 2,2 C -1,1 C 91 % 1025,1 hPa 0,0 l/m 0 min 0 min 0 W/m 3,2 km/h (1 Bft) 100,00 %
16.02.2023 03:12 2,9 C 2,2 C -1,1 C 91 % 1025,1 hPa 0,0 l/m 0 min 0 min 0 W/m 3,2 km/h (1 Bft) 95,74 %
16.02.2023 03:14 2,8 C 1,7 C -1,1 C 91 % 1025,1 hPa 0,0 l/m 0 min 0 min 0 W/m 3,2 km/h (1 Bft) 97,83 %
16.02.2023 03:16 2,8 C 1,7 C -1,1 C 91 % 1025,1 hPa 0,0 l/m 0 min 0 min 0 W/m 3,2 km/h (1 Bft) 100,00 %
16.02.2023 03:18 2,8 C 1,7 C -1,1 C 91 % 1025,0 hPa 0,0 l/m 0 min 0 min 0 W/m 3,2 km/h (1 Bft) 93,62 %
16.02.2023 03:20 2,8 C 1,7 C -1,1 C 91 % 1025,0 hPa 0,0 l/m 0 min 0 min 0 W/m 3,2 km/h (1 Bft) 95,74 %
16.02.2023 03:22 2,8 C 1,7 C -1,1 C 91 % 1025,0 hPa 0,0 l/m 0 min 0 min 0 W/m 12,9 km/h (3 Bft) 91,49 %
16.02.2023 03:24 2,8 C 1,7 C -1,1 C 91 % 1025,0 hPa 0,0 l/m 0 min 0 min 0 W/m 6,4 km/h (2 Bft) 95,74 %
16.02.2023 03:26 2,7 C 1,7 C -1,1 C 91 % 1025,0 hPa 0,0 l/m 0 min 0 min 0 W/m 3,2 km/h (1 Bft) 93,62 %
16.02.2023 03:28 2,7 C 1,7 C -1,1 C 91 % 1024,9 hPa 0,0 l/m 0 min 0 min 0 W/m 6,4 km/h (2 Bft) 97,83 %
16.02.2023 03:30 2,7 C 1,7 C -1,1 C 91 % 1024,9 hPa 0,0 l/m 0 min 0 min 0 W/m 6,4 km/h (2 Bft) 85,19 %
16.02.2023 03:32 2,7 C 1,7 C -1,1 C 91 % 1024,9 hPa 0,0 l/m 0 min 0 min 0 W/m 6,4 km/h (2 Bft) 93,62 %
16.02.2023 03:34 2,7 C 1,7 C -1,1 C 91 % 1024,9 hPa 0,0 l/m 0 min 0 min 0 W/m 12,9 km/h (3 Bft) 93,62 %
16.02.2023 03:36 2,7 C 1,7 C -1,1 C 91 % 1024,8 hPa 0,0 l/m 0 min 0 min 0 W/m 12,9 km/h (3 Bft) 97,87 %
16.02.2023 03:38 2,7 C 1,7 C -1,1 C 91 % 1024,8 hPa 0,0 l/m 0 min 0 min 0 W/m 12,9 km/h (3 Bft) 97,83 %
16.02.2023 03:40 2,6 C 1,7 C -1,1 C 91 % 1024,8 hPa 0,0 l/m 0 min 0 min 0 W/m 6,4 km/h (2 Bft) 100,00 %
16.02.2023 03:42 2,6 C 1,7 C -1,1 C 91 % 1024,8 hPa 0,0 l/m 0 min 0 min 0 W/m 6,4 km/h (2 Bft) 93,62 %
16.02.2023 03:44 2,6 C 1,7 C -1,1 C 91 % 1024,7 hPa 0,0 l/m 0 min 0 min 0 W/m 12,9 km/h (3 Bft) 97,87 %
16.02.2023 03:46 2,6 C 1,7 C -1,1 C 91 % 1024,7 hPa 0,0 l/m 0 min 0 min 0 W/m 12,9 km/h (3 Bft) 97,87 %
16.02.2023 03:48 2,6 C 1,7 C -1,1 C 91 % 1024,7 hPa 0,0 l/m 0 min 0 min 0 W/m 12,9 km/h (3 Bft) 89,36 %
16.02.2023 03:50 2,6 C 1,7 C -1,1 C 92 % 1024,7 hPa 0,0 l/m 0 min 0 min 0 W/m 6,4 km/h (2 Bft) 93,62 %
16.02.2023 03:52 2,6 C 1,7 C -1,1 C 92 % 1024,6 hPa 0,0 l/m 0 min 0 min 0 W/m 6,4 km/h (2 Bft) 71,74 %
16.02.2023 03:54 2,6 C 1,7 C -1,1 C 92 % 1024,6 hPa 0,0 l/m 0 min 0 min 0 W/m 3,2 km/h (1 Bft) 94,94 %
16.02.2023 03:56 2,5 C 1,7 C -1,1 C 92 % 1024,6 hPa 0,0 l/m 0 min 0 min 0 W/m 6,4 km/h (2 Bft) 50,00 %
16.02.2023 03:58 2,5 C 1,7 C -1,1 C 92 % 1024,6 hPa 0,0 l/m 0 min 0 min 0 W/m 6,4 km/h (2 Bft) 48,94 %
16.02.2023 04:00 2,5 C 1,7 C -1,1 C 92 % 1024,7 hPa 0,0 l/m 0 min 0 min 0 W/m 12,9 km/h (3 Bft) 65,96 %
16.02.2023 04:02 2,5 C 1,7 C -1,1 C 92 % 1024,6 hPa 0,0 l/m 0 min 0 min 0 W/m 12,9 km/h (3 Bft) 95,74 %
16.02.2023 04:04 2,5 C 1,7 C -1,1 C 92 % 1024,5 hPa 0,0 l/m 0 min 0 min 0 W/m 9,7 km/h (2 Bft) 95,65 %
16.02.2023 04:06 2,4 C 1,7 C -1,1 C 92 % 1024,4 hPa 0,0 l/m 0 min 0 min 0 W/m 12,9 km/h (3 Bft) 91,49 %
16.02.2023 04:08 2,4 C 1,7 C -1,1 C 92 % 1024,5 hPa 0,0 l/m 0 min 0 min 0 W/m 12,9 km/h (3 Bft) 89,36 %
16.02.2023 04:10 2,4 C 1,7 C -1,1 C 92 % 1024,4 hPa 0,0 l/m 0 min 0 min 0 W/m 16,1 km/h (3 Bft) 80,85 %
16.02.2023 04:12 2,4 C 1,7 C -1,1 C 92 % 1024,4 hPa 0,0 l/m 0 min 0 min 0 W/m 12,9 km/h (3 Bft) 57,45 %
16.02.2023 04:14 2,4 C 1,7 C -1,1 C 92 % 1024,4 hPa 0,0 l/m 0 min 0 min 0 W/m 12,9 km/h (3 Bft) 82,98 %
16.02.2023 04:16 2,4 C 1,7 C -1,1 C 92 % 1024,4 hPa 0,0 l/m 0 min 0 min 0 W/m 12,9 km/h (3 Bft) 80,85 %
16.02.2023 04:18 2,4 C 1,7 C -1,1 C 92 % 1024,4 hPa 0,0 l/m 0 min 0 min 0 W/m 12,9 km/h (3 Bft) 89,13 %
16.02.2023 04:20 2,3 C 1,7 C -1,7 C 92 % 1024,4 hPa 0,0 l/m 0 min 0 min 0 W/m 6,4 km/h (2 Bft) 72,34 %
16.02.2023 04:22 2,3 C 1,7 C -1,7 C 92 % 1024,4 hPa 0,0 l/m 0 min 0 min 0 W/m 6,4 km/h (2 Bft) 80,85 %
16.02.2023 04:24 2,3 C 1,7 C -1,7 C 92 % 1024,4 hPa 0,0 l/m 0 min 0 min 0 W/m 12,9 km/h (3 Bft) 93,62 %
16.02.2023 04:26 2,3 C 1,7 C -1,7 C 92 % 1024,3 hPa 0,0 l/m 0 min 0 min 0 W/m 12,9 km/h (3 Bft) 95,74 %
16.02.2023 04:28 2,3 C 1,7 C -1,7 C 92 % 1024,3 hPa 0,0 l/m 0 min 0 min 0 W/m 16,1 km/h (3 Bft) 93,62 %
16.02.2023 04:30 2,3 C 1,7 C -1,7 C 92 % 1024,3 hPa 0,0 l/m 0 min 0 min 0 W/m 6,4 km/h (2 Bft) 89,13 %
16.02.2023 04:32 2,3 C 1,7 C -1,7 C 92 % 1024,2 hPa 0,0 l/m 0 min 0 min 0 W/m 12,9 km/h (3 Bft) 91,49 %
16.02.2023 04:34 2,3 C 1,7 C -1,7 C 92 % 1024,2 hPa 0,0 l/m 0 min 0 min 0 W/m 6,4 km/h (2 Bft) 91,49 %
16.02.2023 04:36 2,3 C 1,7 C -1,7 C 92 % 1024,3 hPa 0,0 l/m 0 min 0 min 0 W/m 6,4 km/h (2 Bft) 93,62 %
16.02.2023 04:38 2,2 C 1,7 C -1,7 C 92 % 1024,3 hPa 0,0 l/m 0 min 0 min 0 W/m 6,4 km/h (2 Bft) 87,23 %
16.02.2023 04:40 2,2 C 1,7 C -1,7 C 92 % 1024,3 hPa 0,0 l/m 0 min 0 min 0 W/m 3,2 km/h (1 Bft) 85,11 %
16.02.2023 04:42 2,2 C 1,7 C -1,7 C 92 % 1024,4 hPa 0,0 l/m 0 min 0 min 0 W/m 6,4 km/h (2 Bft) 89,36 %
16.02.2023 04:44 2,2 C 1,1 C -1,7 C 92 % 1024,4 hPa 0,0 l/m 0 min 0 min 0 W/m 6,4 km/h (2 Bft) 91,30 %
16.02.2023 04:46 2,2 C 1,1 C -1,7 C 92 % 1024,4 hPa 0,0 l/m 0 min 0 min 0 W/m 6,4 km/h (2 Bft) 87,23 %
16.02.2023 04:48 2,2 C 1,1 C -1,7 C 92 % 1024,5 hPa 0,0 l/m 0 min 0 min 0 W/m 6,4 km/h (2 Bft) 87,23 %
16.02.2023 04:50 2,2 C 1,7 C -1,7 C 92 % 1024,5 hPa 0,0 l/m 0 min 0 min 0 W/m 6,4 km/h (2 Bft) 85,11 %
16.02.2023 04:52 2,2 C 1,7 C -1,7 C 92 % 1024,4 hPa 0,0 l/m 0 min 0 min 0 W/m 6,4 km/h (2 Bft) 100,00 %
16.02.2023 04:54 2,2 C 1,7 C -1,7 C 92 % 1024,4 hPa 0,0 l/m 0 min 0 min 0 W/m 6,4 km/h (2 Bft) 89,36 %
16.02.2023 04:56 2,2 C 1,7 C -1,7 C 92 % 1024,4 hPa 0,0 l/m 0 min 0 min 0 W/m 16,1 km/h (3 Bft) 91,49 %
16.02.2023 04:58 2,2 C 1,7 C -1,7 C 92 % 1024,4 hPa 0,0 l/m 0 min 0 min 0 W/m 12,9 km/h (3 Bft) 89,13 %
16.02.2023 05:00 2,1 C 1,7 C -1,7 C 92 % 1024,4 hPa 0,0 l/m 0 min 0 min 0 W/m 12,9 km/h (3 Bft) 97,87 %
16.02.2023 05:02 2,2 C 1,7 C -1,7 C 92 % 1024,3 hPa 0,0 l/m 0 min 0 min 0 W/m 6,4 km/h (2 Bft) 97,87 %
16.02.2023 05:04 2,1 C 1,7 C -1,7 C 92 % 1024,4 hPa 0,0 l/m 0 min 0 min 0 W/m 12,9 km/h (3 Bft) 95,74 %
16.02.2023 05:06 2,1 C 1,7 C -1,7 C 92 % 1024,3 hPa 0,0 l/m 0 min 0 min 0 W/m 12,9 km/h (3 Bft) 95,74 %
16.02.2023 05:08 2,1 C 1,1 C -1,7 C 92 % 1024,3 hPa 0,0 l/m 0 min 0 min 0 W/m 6,4 km/h (2 Bft) 91,43 %
16.02.2023 05:10 2,1 C 1,1 C -1,7 C 92 % 1024,3 hPa 0,0 l/m 0 min 0 min 0 W/m 6,4 km/h (2 Bft) 85,11 %
16.02.2023 05:12 2,1 C 1,1 C -1,7 C 92 % 1024,3 hPa 0,0 l/m 0 min 0 min 0 W/m 6,4 km/h (2 Bft) 95,74 %
16.02.2023 05:14 2,1 C 1,1 C -1,7 C 92 % 1024,3 hPa 0,0 l/m 0 min 0 min 0 W/m 12,9 km/h (3 Bft) 91,30 %
16.02.2023 05:16 2,1 C 1,1 C -1,7 C 92 % 1024,3 hPa 0,0 l/m 0 min 0 min 0 W/m 12,9 km/h (3 Bft) 78,72 %
16.02.2023 05:18 2,1 C 1,1 C -1,7 C 93 % 1024,3 hPa 0,0 l/m 0 min 0 min 0 W/m 6,4 km/h (2 Bft) 65,96 %
16.02.2023 05:20 2,1 C 1,7 C -1,7 C 93 % 1024,3 hPa 0,0 l/m 0 min 0 min 0 W/m 6,4 km/h (2 Bft) 95,74 %
16.02.2023 05:22 2,1 C 1,7 C -1,7 C 93 % 1024,3 hPa 0,0 l/m 0 min 0 min 0 W/m 12,9 km/h (3 Bft) 94,64 %
16.02.2023 05:24 2,1 C 1,7 C -1,7 C 93 % 1024,3 hPa 0,0 l/m 0 min 0 min 0 W/m 12,9 km/h (3 Bft) 91,84 %
16.02.2023 05:26 2,1 C 1,7 C -1,7 C 93 % 1024,3 hPa 0,0 l/m 0 min 0 min 0 W/m 12,9 km/h (3 Bft) 89,36 %
16.02.2023 05:28 2,1 C 1,7 C -1,7 C 93 % 1024,3 hPa 0,0 l/m 0 min 0 min 0 W/m 12,9 km/h (3 Bft) 72,34 %
16.02.2023 05:30 2,1 C 1,7 C -1,7 C 93 % 1024,3 hPa 0,0 l/m 0 min 0 min 0 W/m 12,9 km/h (3 Bft) 82,00 %
16.02.2023 05:32 2,1 C 1,7 C -1,7 C 93 % 1024,3 hPa 0,0 l/m 0 min 0 min 0 W/m 12,9 km/h (3 Bft) 91,49 %
16.02.2023 05:34 2,1 C 1,7 C -1,7 C 93 % 1024,3 hPa 0,0 l/m 0 min 0 min 0 W/m 6,4 km/h (2 Bft) 95,74 %
16.02.2023 05:36 2,1 C 1,1 C -1,7 C 93 % 1024,3 hPa 0,0 l/m 0 min 0 min 0 W/m 9,7 km/h (2 Bft) 95,65 %
16.02.2023 05:38 2,1 C 1,1 C -1,7 C 93 % 1024,4 hPa 0,0 l/m 0 min 0 min 0 W/m 12,9 km/h (3 Bft) 97,87 %
16.02.2023 05:40 2,1 C 1,1 C -1,7 C 93 % 1024,4 hPa 0,0 l/m 0 min 0 min 0 W/m 6,4 km/h (2 Bft) 100,00 %
16.02.2023 05:42 2,1 C 1,1 C -1,7 C 93 % 1024,4 hPa 0,0 l/m 0 min 0 min 0 W/m 12,9 km/h (3 Bft) 100,00 %
16.02.2023 05:44 2,1 C 1,1 C -1,7 C 93 % 1024,4 hPa 0,0 l/m 0 min 0 min 0 W/m 9,7 km/h (2 Bft) 100,00 %
16.02.2023 05:46 2,1 C 1,1 C -1,7 C 93 % 1024,4 hPa 0,0 l/m 0 min 0 min 0 W/m 12,9 km/h (3 Bft) 93,62 %
16.02.2023 05:48 2,1 C 1,1 C -1,7 C 93 % 1024,4 hPa 0,0 l/m 0 min 0 min 0 W/m 12,9 km/h (3 Bft) 97,83 %
16.02.2023 05:50 2,1 C 1,1 C -1,7 C 93 % 1024,4 hPa 0,0 l/m 0 min 0 min 0 W/m 6,4 km/h (2 Bft) 100,00 %
16.02.2023 05:52 2,1 C 1,1 C -1,7 C 93 % 1024,3 hPa 0,0 l/m 0 min 0 min 0 W/m 12,9 km/h (3 Bft) 97,87 %
16.02.2023 05:54 2,1 C 1,1 C -1,7 C 93 % 1024,3 hPa 0,0 l/m 0 min 0 min 0 W/m 12,9 km/h (3 Bft) 100,00 %
16.02.2023 05:56 2,1 C 1,1 C -1,7 C 93 % 1024,3 hPa 0,0 l/m 0 min 0 min 0 W/m 12,9 km/h (3 Bft) 100,00 %
16.02.2023 05:58 2,1 C 1,1 C -1,7 C 93 % 1024,3 hPa 0,0 l/m 0 min 0 min 0 W/m 6,4 km/h (2 Bft) 97,87 %
16.02.2023 06:00 2,1 C 1,1 C -1,7 C 93 % 1024,3 hPa 0,0 l/m 0 min 0 min 0 W/m 12,9 km/h (3 Bft) 97,87 %
16.02.2023 06:02 2,1 C 1,1 C -1,7 C 93 % 1024,4 hPa 0,0 l/m 0 min 0 min 0 W/m 12,9 km/h (3 Bft) 95,65 %
16.02.2023 06:04 2,1 C 1,1 C -1,7 C 93 % 1024,4 hPa 0,0 l/m 0 min 0 min 0 W/m 12,9 km/h (3 Bft) 97,87 %
16.02.2023 06:07 2,1 C 1,7 C -1,7 C 93 % 1024,3 hPa 0,0 l/m 0 min 0 min 0 W/m 12,9 km/h (3 Bft) 97,22 %
16.02.2023 06:08 2,1 C 1,7 C -1,7 C 93 % 1024,3 hPa 0,0 l/m 0 min 0 min 0 W/m 16,1 km/h (3 Bft) 100,00 %
16.02.2023 06:12 2,1 C 1,7 C -1,7 C 93 % 1024,3 hPa 0,0 l/m 0 min 0 min 0 W/m 12,9 km/h (3 Bft) 98,25 %
16.02.2023 06:14 2,1 C 1,7 C -1,7 C 93 % 1024,4 hPa 0,0 l/m 0 min 0 min 0 W/m 12,9 km/h (3 Bft) 97,87 %
16.02.2023 06:16 2,1 C 1,1 C -1,7 C 93 % 1024,4 hPa 0,0 l/m 0 min 0 min 0 W/m 12,9 km/h (3 Bft) 93,62 %
16.02.2023 06:18 2,1 C 1,1 C -1,7 C 93 % 1024,4 hPa 0,0 l/m 0 min 0 min 0 W/m 12,9 km/h (3 Bft) 97,87 %
16.02.2023 06:20 2,1 C 1,1 C -1,7 C 93 % 1024,4 hPa 0,0 l/m 0 min 0 min 0 W/m 12,9 km/h (3 Bft) 97,87 %
16.02.2023 06:22 2,1 C 1,1 C -1,7 C 93 % 1024,4 hPa 0,0 l/m 0 min 0 min 0 W/m 12,9 km/h (3 Bft) 97,83 %
16.02.2023 06:24 2,0 C 1,1 C -1,7 C 93 % 1024,4 hPa 0,0 l/m 0 min 0 min 0 W/m 16,1 km/h (3 Bft) 97,87 %
16.02.2023 06:26 2,0 C 1,1 C -1,7 C 93 % 1024,4 hPa 0,0 l/m 0 min 0 min 0 W/m 9,7 km/h (2 Bft) 97,87 %
16.02.2023 06:28 2,0 C 1,1 C -1,7 C 93 % 1024,4 hPa 0,0 l/m 0 min 0 min 0 W/m 12,9 km/h (3 Bft) 97,87 %
16.02.2023 06:30 2,0 C 1,1 C -1,7 C 93 % 1024,4 hPa 0,0 l/m 0 min 0 min 0 W/m 12,9 km/h (3 Bft) 95,74 %
16.02.2023 06:32 2,0 C 1,1 C -1,7 C 93 % 1024,3 hPa 0,0 l/m 0 min 0 min 0 W/m 6,4 km/h (2 Bft) 95,74 %
16.02.2023 06:34 2,0 C 1,1 C -1,7 C 93 % 1024,4 hPa 0,0 l/m 0 min 0 min 0 W/m 12,9 km/h (3 Bft) 97,83 %
16.02.2023 06:36 2,0 C 1,7 C -1,7 C 93 % 1024,4 hPa 0,0 l/m 0 min 0 min 0 W/m 12,9 km/h (3 Bft) 97,87 %
16.02.2023 06:38 2,0 C 1,7 C -1,7 C 93 % 1024,4 hPa 0,0 l/m 0 min 0 min 0 W/m 6,4 km/h (2 Bft) 95,74 %
16.02.2023 06:40 2,0 C 1,7 C -1,7 C 93 % 1024,4 hPa 0,0 l/m 0 min 0 min 0 W/m 12,9 km/h (3 Bft) 97,87 %
16.02.2023 06:42 2,0 C 1,7 C -1,7 C 93 % 1024,5 hPa 0,0 l/m 0 min 0 min 0 W/m 6,4 km/h (2 Bft) 97,87 %
16.02.2023 06:44 2,1 C 1,7 C -1,7 C 93 % 1024,4 hPa 0,0 l/m 0 min 0 min 0 W/m 12,9 km/h (3 Bft) 95,83 %
16.02.2023 06:46 2,1 C 1,7 C -1,7 C 93 % 1024,4 hPa 0,0 l/m 0 min 0 min 0 W/m 12,9 km/h (3 Bft) 95,74 %
16.02.2023 06:48 2,1 C 1,7 C -1,7 C 93 % 1024,3 hPa 0,0 l/m 0 min 0 min 0 W/m 12,9 km/h (3 Bft) 97,87 %
16.02.2023 06:50 2,1 C 1,7 C -1,1 C 93 % 1024,4 hPa 0,0 l/m 0 min 0 min 0 W/m 12,9 km/h (3 Bft) 97,87 %
16.02.2023 06:52 2,1 C 1,7 C -1,1 C 93 % 1024,4 hPa 0,0 l/m 0 min 0 min 0 W/m 9,7 km/h (2 Bft) 97,87 %
16.02.2023 06:54 2,1 C 1,7 C -1,1 C 93 % 1024,4 hPa 0,0 l/m 0 min 0 min 0 W/m 12,9 km/h (3 Bft) 95,74 %
16.02.2023 06:56 2,1 C 1,7 C -1,1 C 93 % 1024,3 hPa 0,0 l/m 0 min 0 min 0 W/m 12,9 km/h (3 Bft) 93,48 %
16.02.2023 06:58 2,1 C 1,7 C -1,1 C 93 % 1024,4 hPa 0,0 l/m 0 min 0 min 0 W/m 12,9 km/h (3 Bft) 97,87 %
16.02.2023 07:00 2,1 C 1,7 C -1,1 C 93 % 1024,3 hPa 0,0 l/m 0 min 0 min 0 W/m 12,9 km/h (3 Bft) 97,87 %
16.02.2023 07:02 2,1 C 1,7 C -1,1 C 93 % 1024,3 hPa 0,0 l/m 0 min 0 min 0 W/m 12,9 km/h (3 Bft) 100,00 %
16.02.2023 07:04 2,1 C 1,7 C -1,1 C 93 % 1024,3 hPa 0,0 l/m 0 min 0 min 0 W/m 12,9 km/h (3 Bft) 93,62 %
16.02.2023 07:06 2,1 C 1,7 C -1,1 C 93 % 1024,3 hPa 0,0 l/m 0 min 0 min 0 W/m 12,9 km/h (3 Bft) 97,87 %
16.02.2023 07:08 2,1 C 1,7 C -1,1 C 93 % 1024,3 hPa 0,0 l/m 0 min 0 min 0 W/m 12,9 km/h (3 Bft) 97,87 %
16.02.2023 07:10 2,1 C 1,7 C -1,1 C 93 % 1024,3 hPa 0,0 l/m 0 min 0 min 0 W/m 12,9 km/h (3 Bft) 97,83 %
16.02.2023 07:12 2,2 C 1,7 C -1,1 C 93 % 1024,3 hPa 0,0 l/m 0 min 0 min 0 W/m 12,9 km/h (3 Bft) 95,74 %
16.02.2023 07:14 2,2 C 1,7 C -1,1 C 93 % 1024,2 hPa 0,0 l/m 0 min 0 min 0 W/m 12,9 km/h (3 Bft) 95,74 %
16.02.2023 07:16 2,2 C 1,7 C -1,1 C 93 % 1024,3 hPa 0,0 l/m 0 min 0 min 0 W/m 6,4 km/h (2 Bft) 97,87 %
16.02.2023 07:18 2,2 C 1,7 C -1,1 C 93 % 1024,3 hPa 0,0 l/m 0 min 0 min 0 W/m 9,7 km/h (2 Bft) 95,74 %
16.02.2023 07:20 2,2 C 1,7 C -1,1 C 93 % 1024,3 hPa 0,0 l/m 0 min 0 min 0 W/m 12,9 km/h (3 Bft) 78,72 %
16.02.2023 07:22 2,2 C 1,7 C -1,1 C 93 % 1024,3 hPa 0,0 l/m 0 min 0 min 0 W/m 12,9 km/h (3 Bft) 93,48 %
16.02.2023 07:24 2,2 C 1,7 C -1,1 C 93 % 1024,3 hPa 0,0 l/m 0 min 0 min 0 W/m 6,4 km/h (2 Bft) 91,49 %
16.02.2023 07:26 2,2 C 1,7 C -1,1 C 93 % 1024,3 hPa 0,0 l/m 0 min 0 min 0 W/m 16,1 km/h (3 Bft) 97,87 %
16.02.2023 07:28 2,2 C 1,7 C -1,1 C 93 % 1024,2 hPa 0,0 l/m 0 min 0 min 0 W/m 19,3 km/h (3 Bft) 100,00 %
16.02.2023 07:30 2,2 C 1,7 C -1,1 C 93 % 1024,2 hPa 0,0 l/m 0 min 0 min 0 W/m 12,9 km/h (3 Bft) 95,74 %
16.02.2023 07:32 2,3 C 1,7 C -1,1 C 93 % 1024,3 hPa 0,0 l/m 0 min 0 min 0 W/m 19,3 km/h (3 Bft) 97,87 %
16.02.2023 07:34 2,3 C 1,7 C -1,1 C 93 % 1024,3 hPa 0,0 l/m 0 min 0 min 0 W/m 9,7 km/h (2 Bft) 97,83 %
16.02.2023 07:36 2,3 C 1,7 C -1,1 C 93 % 1024,4 hPa 0,0 l/m 0 min 0 min 0 W/m 16,1 km/h (3 Bft) 97,87 %
16.02.2023 07:38 2,3 C 1,7 C -1,1 C 93 % 1024,4 hPa 0,0 l/m 0 min 0 min 0 W/m 12,9 km/h (3 Bft) 93,62 %
16.02.2023 07:40 2,3 C 2,2 C -1,1 C 93 % 1024,4 hPa 0,0 l/m 0 min 0 min 0 W/m 9,7 km/h (2 Bft) 97,87 %
16.02.2023 07:42 2,3 C 2,2 C -1,1 C 93 % 1024,4 hPa 0,0 l/m 0 min 0 min 5 W/m 12,9 km/h (3 Bft) 95,74 %
16.02.2023 07:44 2,3 C 2,2 C -1,1 C 93 % 1024,4 hPa 0,0 l/m 0 min 0 min 7 W/m 19,3 km/h (3 Bft) 97,87 %
16.02.2023 07:46 2,3 C 2,2 C -1,1 C 93 % 1024,3 hPa 0,0 l/m 0 min 0 min 7 W/m 12,9 km/h (3 Bft) 97,87 %
16.02.2023 07:48 2,3 C 2,2 C -1,1 C 93 % 1024,3 hPa 0,0 l/m 0 min 0 min 7 W/m 16,1 km/h (3 Bft) 97,83 %
16.02.2023 07:50 2,4 C 2,2 C -1,1 C 93 % 1024,3 hPa 0,0 l/m 0 min 0 min 10 W/m 16,1 km/h (3 Bft) 97,87 %
16.02.2023 07:52 2,4 C 2,2 C -1,1 C 93 % 1024,3 hPa 0,0 l/m 0 min 0 min 11 W/m 22,5 km/h (4 Bft) 97,87 %
16.02.2023 07:54 2,4 C 2,2 C -1,1 C 93 % 1024,2 hPa 0,0 l/m 0 min 0 min 12 W/m 12,9 km/h (3 Bft) 95,74 %
16.02.2023 07:56 2,4 C 2,2 C -1,1 C 93 % 1024,2 hPa 0,0 l/m 0 min 0 min 12 W/m 16,1 km/h (3 Bft) 95,74 %
16.02.2023 07:58 2,5 C 2,2 C -1,1 C 93 % 1024,2 hPa 0,0 l/m 0 min 0 min 12 W/m 16,1 km/h (3 Bft) 95,74 %
16.02.2023 08:00 2,5 C 2,2 C -1,1 C 93 % 1024,2 hPa 0,0 l/m 0 min 0 min 12 W/m 19,3 km/h (3 Bft) 97,83 %
16.02.2023 08:02 2,5 C 2,2 C -1,1 C 93 % 1024,3 hPa 0,0 l/m 0 min 0 min 11 W/m 19,3 km/h (3 Bft) 97,87 %
16.02.2023 08:04 2,6 C 2,2 C -1,1 C 93 % 1024,3 hPa 0,0 l/m 0 min 0 min 11 W/m 16,1 km/h (3 Bft) 100,00 %
16.02.2023 08:06 2,6 C 2,2 C -1,1 C 93 % 1024,3 hPa 0,0 l/m 0 min 0 min 11 W/m 22,5 km/h (4 Bft) 97,87 %
16.02.2023 08:08 2,6 C 2,2 C -0,6 C 93 % 1024,3 hPa 0,0 l/m 0 min 0 min 11 W/m 19,3 km/h (3 Bft) 97,87 %
16.02.2023 08:10 2,6 C 2,2 C -0,6 C 93 % 1024,3 hPa 0,0 l/m 0 min 0 min 11 W/m 12,9 km/h (3 Bft) 97,87 %
16.02.2023 08:12 2,6 C 2,2 C -0,6 C 93 % 1024,3 hPa 0,0 l/m 0 min 0 min 11 W/m 16,1 km/h (3 Bft) 97,87 %
16.02.2023 08:14 2,7 C 2,2 C -0,6 C 93 % 1024,3 hPa 0,0 l/m 0 min 0 min 9 W/m 12,9 km/h (3 Bft) 97,83 %
16.02.2023 08:16 2,7 C 2,2 C -0,6 C 93 % 1024,3 hPa 0,0 l/m 0 min 0 min 10 W/m 16,1 km/h (3 Bft) 97,87 %
16.02.2023 08:18 2,7 C 2,2 C -0,6 C 93 % 1024,3 hPa 0,0 l/m 0 min 0 min 11 W/m 16,1 km/h (3 Bft) 97,87 %
16.02.2023 08:20 2,7 C 2,2 C -0,6 C 93 % 1024,3 hPa 0,0 l/m 0 min 0 min 12 W/m 16,1 km/h (3 Bft) 97,87 %
16.02.2023 08:22 2,8 C 2,8 C -0,6 C 93 % 1024,3 hPa 0,0 l/m 0 min 0 min 12 W/m 16,1 km/h (3 Bft) 97,87 %
16.02.2023 08:24 2,8 C 2,8 C -0,6 C 93 % 1024,3 hPa 0,0 l/m 0 min 0 min 12 W/m 19,3 km/h (3 Bft) 95,74 %
16.02.2023 08:26 2,8 C 2,8 C -0,6 C 93 % 1024,4 hPa 0,0 l/m 0 min 0 min 13 W/m 16,1 km/h (3 Bft) 95,65 %
16.02.2023 08:28 2,8 C 2,8 C -0,6 C 93 % 1024,4 hPa 0,0 l/m 0 min 0 min 14 W/m 16,1 km/h (3 Bft) 97,87 %
16.02.2023 08:30 2,8 C 2,8 C -0,6 C 93 % 1024,4 hPa 0,0 l/m 0 min 0 min 16 W/m 16,1 km/h (3 Bft) 97,87 %
16.02.2023 08:32 2,8 C 2,8 C -0,6 C 93 % 1024,4 hPa 0,0 l/m 0 min 0 min 19 W/m 16,1 km/h (3 Bft) 95,74 %
16.02.2023 08:34 2,9 C 2,8 C -0,6 C 93 % 1024,4 hPa 0,0 l/m 0 min 0 min 24 W/m 16,1 km/h (3 Bft) 97,87 %
16.02.2023 08:36 2,9 C 2,8 C -0,6 C 93 % 1024,4 hPa 0,0 l/m 0 min 0 min 28 W/m 12,9 km/h (3 Bft) 95,74 %
16.02.2023 08:38 2,9 C 2,8 C -0,6 C 93 % 1024,4 hPa 0,0 l/m 0 min 0 min 32 W/m 16,1 km/h (3 Bft) 95,74 %
16.02.2023 08:40 2,9 C 2,8 C -0,6 C 93 % 1024,4 hPa 0,0 l/m 0 min 0 min 34 W/m 16,1 km/h (3 Bft) 95,65 %
16.02.2023 08:42 2,9 C 2,8 C -0,6 C 93 % 1024,4 hPa 0,0 l/m 0 min 0 min 36 W/m 16,1 km/h (3 Bft) 91,49 %
16.02.2023 08:44 3,0 C 2,8 C -0,6 C 93 % 1024,4 hPa 0,0 l/m 0 min 0 min 38 W/m 16,1 km/h (3 Bft) 95,74 %
16.02.2023 08:46 3,0 C 2,8 C -0,6 C 93 % 1024,4 hPa 0,0 l/m 0 min 0 min 40 W/m 12,9 km/h (3 Bft) 95,74 %
16.02.2023 08:48 3,0 C 2,8 C -0,6 C 93 % 1024,4 hPa 0,0 l/m 0 min 0 min 41 W/m 16,1 km/h (3 Bft) 95,74 %
16.02.2023 08:50 3,1 C 2,8 C -0,6 C 93 % 1024,5 hPa 0,0 l/m 0 min 0 min 42 W/m 16,1 km/h (3 Bft) 95,74 %
16.02.2023 08:52 3,1 C 2,8 C 0,0 C 93 % 1024,6 hPa 0,0 l/m 0 min 0 min 45 W/m 12,9 km/h (3 Bft) 95,65 %
16.02.2023 08:54 3,1 C 2,8 C 0,0 C 93 % 1024,6 hPa 0,0 l/m 0 min 0 min 50 W/m 9,7 km/h (2 Bft) 91,49 %
16.02.2023 08:56 3,1 C 3,3 C 0,0 C 93 % 1024,6 hPa 0,0 l/m 0 min 0 min 57 W/m 16,1 km/h (3 Bft) 95,74 %
16.02.2023 08:58 3,2 C 3,3 C 0,0 C 93 % 1024,6 hPa 0,0 l/m 0 min 0 min 63 W/m 16,1 km/h (3 Bft) 93,62 %
16.02.2023 09:00 3,2 C 3,3 C 0,0 C 93 % 1024,5 hPa 0,0 l/m 0 min 0 min 66 W/m 12,9 km/h (3 Bft) 97,87 %
16.02.2023 09:02 3,2 C 3,3 C 0,0 C 93 % 1024,4 hPa 0,0 l/m 0 min 0 min 69 W/m 12,9 km/h (3 Bft) 95,74 %
16.02.2023 09:04 3,2 C 3,3 C 0,0 C 93 % 1024,5 hPa 0,0 l/m 0 min 0 min 74 W/m 9,7 km/h (2 Bft) 100,00 %
16.02.2023 09:06 3,3 C 3,3 C 0,0 C 92 % 1024,5 hPa 0,0 l/m 0 min 0 min 84 W/m 12,9 km/h (3 Bft) 96,23 %
16.02.2023 09:08 3,3 C 3,3 C 0,0 C 92 % 1024,4 hPa 0,0 l/m 2 min 0 min 101 W/m 12,9 km/h (3 Bft) 95,74 %
16.02.2023 09:10 3,3 C 3,3 C 0,0 C 92 % 1024,4 hPa 0,0 l/m 2 min 0 min 105 W/m 12,9 km/h (3 Bft) 100,00 %
16.02.2023 09:12 3,3 C 3,9 C 0,0 C 92 % 1024,5 hPa 0,0 l/m 2 min 0 min 97 W/m 12,9 km/h (3 Bft) 97,87 %
16.02.2023 09:14 3,4 C 3,9 C 0,0 C 92 % 1024,6 hPa 0,0 l/m 0 min 0 min 91 W/m 9,7 km/h (2 Bft) 100,00 %
16.02.2023 09:16 3,4 C 3,9 C 0,0 C 93 % 1024,6 hPa 0,0 l/m 0 min 0 min 88 W/m 12,9 km/h (3 Bft) 100,00 %
16.02.2023 09:18 3,5 C 3,9 C 0,0 C 93 % 1024,7 hPa 0,0 l/m 0 min 0 min 86 W/m 12,9 km/h (3 Bft) 100,00 %
16.02.2023 09:20 3,5 C 3,9 C 0,0 C 92 % 1024,7 hPa 0,0 l/m 0 min 0 min 87 W/m 12,9 km/h (3 Bft) 100,00 %
16.02.2023 09:22 3,6 C 3,9 C 0,0 C 92 % 1024,7 hPa 0,0 l/m 0 min 0 min 97 W/m 12,9 km/h (3 Bft) 97,87 %
16.02.2023 09:24 3,6 C 4,4 C 0,6 C 92 % 1024,7 hPa 0,0 l/m 2 min 0 min 112 W/m 16,1 km/h (3 Bft) 100,00 %
16.02.2023 09:26 3,6 C 4,4 C 0,6 C 92 % 1024,7 hPa 0,0 l/m 2 min 0 min 136 W/m 12,9 km/h (3 Bft) 100,00 %
16.02.2023 09:28 3,6 C 4,4 C 0,6 C 92 % 1024,6 hPa 0,0 l/m 2 min 0 min 137 W/m 16,1 km/h (3 Bft) 97,87 %
16.02.2023 09:30 3,7 C 5,0 C 0,6 C 92 % 1024,6 hPa 0,0 l/m 2 min 0 min 124 W/m 12,9 km/h (3 Bft) 100,00 %
16.02.2023 09:32 3,7 C 5,0 C 0,6 C 92 % 1024,7 hPa 0,0 l/m 2 min 0 min 120 W/m 12,9 km/h (3 Bft) 100,00 %
16.02.2023 09:34 3,8 C 4,4 C 0,6 C 92 % 1024,6 hPa 0,0 l/m 0 min 0 min 107 W/m 16,1 km/h (3 Bft) 100,00 %
16.02.2023 09:36 3,8 C 4,4 C 0,6 C 92 % 1024,6 hPa 0,0 l/m 0 min 0 min 118 W/m 9,7 km/h (2 Bft) 100,00 %
16.02.2023 09:38 3,9 C 4,4 C 0,6 C 92 % 1024,6 hPa 0,0 l/m 2 min 0 min 130 W/m 16,1 km/h (3 Bft) 54,55 %
16.02.2023 09:40 3,9 C 4,4 C 0,6 C 92 % 1024,6 hPa 0,0 l/m 2 min 0 min 143 W/m 12,9 km/h (3 Bft) 100,00 %
16.02.2023 09:42 3,9 C 5,0 C 1,1 C 92 % 1024,6 hPa 0,0 l/m 2 min 0 min 148 W/m 16,1 km/h (3 Bft) 100,00 %
16.02.2023 09:44 4,0 C 5,0 C 1,1 C 92 % 1024,6 hPa 0,0 l/m 2 min 0 min 159 W/m 19,3 km/h (3 Bft) 100,00 %
16.02.2023 09:46 4,1 C 5,0 C 1,1 C 92 % 1024,6 hPa 0,0 l/m 2 min 0 min 220 W/m 16,1 km/h (3 Bft) 97,87 %
16.02.2023 09:48 4,2 C 5,0 C 1,1 C 92 % 1024,7 hPa 0,0 l/m 2 min 0 min 185 W/m 19,3 km/h (3 Bft) 100,00 %
16.02.2023 09:50 4,2 C 5,6 C 1,1 C 91 % 1024,6 hPa 0,0 l/m 2 min 0 min 154 W/m 19,3 km/h (3 Bft) 100,00 %
16.02.2023 09:52 4,3 C 5,0 C 1,1 C 92 % 1024,5 hPa 0,0 l/m 0 min 0 min 131 W/m 19,3 km/h (3 Bft) 100,00 %
16.02.2023 09:54 4,3 C 5,0 C 1,1 C 91 % 1024,6 hPa 0,0 l/m 0 min 0 min 114 W/m 16,1 km/h (3 Bft) 100,00 %
16.02.2023 09:56 4,4 C 4,4 C 1,1 C 91 % 1024,6 hPa 0,0 l/m 0 min 0 min 119 W/m 16,1 km/h (3 Bft) 100,00 %
16.02.2023 09:58 4,4 C 4,4 C 1,1 C 91 % 1024,5 hPa 0,0 l/m 0 min 0 min 135 W/m 19,3 km/h (3 Bft) 95,65 %
16.02.2023 10:00 4,4 C 5,0 C 1,1 C 91 % 1024,5 hPa 0,0 l/m 2 min 0 min 151 W/m 22,5 km/h (4 Bft) 97,87 %
16.02.2023 10:02 4,5 C 5,0 C 1,1 C 90 % 1024,4 hPa 0,0 l/m 2 min 0 min 171 W/m 16,1 km/h (3 Bft) 100,00 %
16.02.2023 10:04 4,6 C 5,0 C 1,1 C 90 % 1024,5 hPa 0,0 l/m 2 min 0 min 189 W/m 16,1 km/h (3 Bft) 97,87 %
16.02.2023 10:06 4,6 C 5,6 C 1,7 C 90 % 1024,5 hPa 0,0 l/m 2 min 0 min 197 W/m 16,1 km/h (3 Bft) 97,87 %
16.02.2023 10:08 4,7 C 6,1 C 1,7 C 90 % 1024,4 hPa 0,0 l/m 2 min 0 min 219 W/m 12,9 km/h (3 Bft) 97,87 %
16.02.2023 10:10 4,7 C 6,1 C 1,7 C 90 % 1024,5 hPa 0,0 l/m 2 min 0 min 208 W/m 6,4 km/h (2 Bft) 95,65 %
16.02.2023 10:12 4,8 C 6,1 C 1,7 C 90 % 1024,5 hPa 0,0 l/m 2 min 0 min 156 W/m 12,9 km/h (3 Bft) 97,87 %
16.02.2023 10:14 4,9 C 5,6 C 1,7 C 90 % 1024,6 hPa 0,0 l/m 0 min 0 min 144 W/m 12,9 km/h (3 Bft) 95,74 %
16.02.2023 10:16 4,9 C 5,6 C 1,7 C 90 % 1024,5 hPa 0,0 l/m 0 min 0 min 138 W/m 12,9 km/h (3 Bft) 97,87 %
16.02.2023 10:18 5,0 C 5,6 C 1,7 C 90 % 1024,6 hPa 0,0 l/m 0 min 0 min 133 W/m 16,1 km/h (3 Bft) 97,87 %
16.02.2023 10:20 5,1 C 5,6 C 1,7 C 90 % 1024,6 hPa 0,0 l/m 0 min 0 min 131 W/m 12,9 km/h (3 Bft) 97,87 %
16.02.2023 10:22 5,1 C 5,6 C 1,7 C 89 % 1024,6 hPa 0,0 l/m 0 min 0 min 124 W/m 16,1 km/h (3 Bft) 97,83 %
16.02.2023 10:24 5,2 C 5,6 C 1,7 C 89 % 1024,7 hPa 0,0 l/m 0 min 0 min 117 W/m 12,9 km/h (3 Bft) 97,87 %
16.02.2023 10:26 5,2 C 5,6 C 1,7 C 89 % 1024,7 hPa 0,0 l/m 0 min 0 min 114 W/m 6,4 km/h (2 Bft) 97,87 %
16.02.2023 10:28 5,3 C 5,6 C 1,7 C 89 % 1024,7 hPa 0,0 l/m 0 min 0 min 118 W/m 6,4 km/h (2 Bft) 95,74 %
16.02.2023 10:30 5,3 C 5,6 C 2,2 C 89 % 1024,7 hPa 0,0 l/m 0 min 0 min 132 W/m 6,4 km/h (2 Bft) 97,87 %
16.02.2023 10:32 5,3 C 6,1 C 2,2 C 89 % 1024,8 hPa 0,0 l/m 0 min 0 min 140 W/m 6,4 km/h (2 Bft) 97,87 %
16.02.2023 10:34 5,4 C 6,1 C 2,2 C 89 % 1024,8 hPa 0,0 l/m 0 min 0 min 137 W/m 6,4 km/h (2 Bft) 95,65 %
16.02.2023 10:36 5,4 C 6,1 C 2,2 C 89 % 1024,9 hPa 0,0 l/m 0 min 0 min 127 W/m 12,9 km/h (3 Bft) 97,87 %
16.02.2023 10:38 5,4 C 6,1 C 2,2 C 89 % 1024,9 hPa 0,0 l/m 0 min 0 min 119 W/m 16,1 km/h (3 Bft) 95,74 %
16.02.2023 10:40 5,5 C 6,1 C 2,2 C 89 % 1024,9 hPa 0,0 l/m 0 min 0 min 107 W/m 6,4 km/h (2 Bft) 95,74 %
16.02.2023 10:42 5,6 C 6,1 C 2,2 C 88 % 1024,9 hPa 0,0 l/m 0 min 0 min 104 W/m 12,9 km/h (3 Bft) 95,74 %
16.02.2023 10:44 5,6 C 6,1 C 2,2 C 88 % 1024,9 hPa 0,0 l/m 0 min 0 min 102 W/m 12,9 km/h (3 Bft) 93,62 %
16.02.2023 10:46 5,6 C 6,1 C 2,2 C 88 % 1024,9 hPa 0,0 l/m 0 min 0 min 102 W/m 6,4 km/h (2 Bft) 91,49 %
16.02.2023 10:48 5,7 C 6,1 C 2,2 C 88 % 1024,9 hPa 0,0 l/m 0 min 0 min 100 W/m 6,4 km/h (2 Bft) 93,48 %
16.02.2023 10:50 5,7 C 6,1 C 2,2 C 88 % 1025,0 hPa 0,0 l/m 0 min 0 min 100 W/m 12,9 km/h (3 Bft) 89,36 %
16.02.2023 10:52 5,7 C 6,1 C 2,2 C 88 % 1025,0 hPa 0,0 l/m 0 min 0 min 100 W/m 6,4 km/h (2 Bft) 63,83 %
16.02.2023 10:54 5,8 C 6,1 C 2,2 C 88 % 1025,1 hPa 0,0 l/m 0 min 0 min 100 W/m 9,7 km/h (2 Bft) 95,74 %
16.02.2023 10:56 5,8 C 6,1 C 2,2 C 88 % 1025,1 hPa 0,0 l/m 0 min 0 min 98 W/m 6,4 km/h (2 Bft) 95,74 %
16.02.2023 10:58 5,8 C 6,1 C 2,2 C 87 % 1025,0 hPa 0,0 l/m 0 min 0 min 97 W/m 12,9 km/h (3 Bft) 97,87 %
16.02.2023 11:00 5,8 C 6,1 C 2,2 C 87 % 1025,0 hPa 0,0 l/m 0 min 0 min 96 W/m 12,9 km/h (3 Bft) 97,14 %
16.02.2023 11:02 5,9 C 6,1 C 2,2 C 87 % 1025,0 hPa 0,0 l/m 0 min 0 min 91 W/m 9,7 km/h (2 Bft) 98,28 %
16.02.2023 11:04 5,9 C 6,1 C 2,2 C 87 % 1025,0 hPa 0,0 l/m 0 min 0 min 86 W/m 12,9 km/h (3 Bft) 94,44 %
16.02.2023 11:06 5,9 C 5,6 C 2,2 C 87 % 1025,0 hPa 0,0 l/m 0 min 0 min 83 W/m 12,9 km/h (3 Bft) 94,83 %
16.02.2023 11:08 5,9 C 6,1 C 2,2 C 87 % 1025,0 hPa 0,0 l/m 0 min 0 min 80 W/m 6,4 km/h (2 Bft) 94,29 %
16.02.2023 11:10 6,0 C 6,1 C 2,2 C 87 % 1025,0 hPa 0,0 l/m 0 min 0 min 77 W/m 6,4 km/h (2 Bft) 94,92 %
16.02.2023 11:12 6,0 C 6,1 C 2,2 C 87 % 1025,0 hPa 0,0 l/m 0 min 0 min 75 W/m 6,4 km/h (2 Bft) 91,43 %
16.02.2023 11:14 6,1 C 6,1 C 2,2 C 87 % 1025,0 hPa 0,0 l/m 0 min 0 min 70 W/m 6,4 km/h (2 Bft) 95,74 %
16.02.2023 11:16 6,1 C 6,1 C 2,2 C 87 % 1025,0 hPa 0,0 l/m 0 min 0 min 67 W/m 6,4 km/h (2 Bft) 95,74 %
16.02.2023 11:18 6,1 C 6,1 C 2,2 C 87 % 1025,0 hPa 0,0 l/m 0 min 0 min 69 W/m 6,4 km/h (2 Bft) 100,00 %
16.02.2023 11:20 6,1 C 6,1 C 2,2 C 87 % 1025,0 hPa 0,0 l/m 0 min 0 min 70 W/m 12,9 km/h (3 Bft) 97,87 %
16.02.2023 11:22 6,1 C 6,1 C 2,2 C 87 % 1024,9 hPa 0,0 l/m 0 min 0 min 74 W/m 6,4 km/h (2 Bft) 97,87 %
16.02.2023 11:24 6,2 C 6,1 C 2,2 C 87 % 1025,0 hPa 0,0 l/m 0 min 0 min 86 W/m 6,4 km/h (2 Bft) 97,87 %
16.02.2023 11:26 6,2 C 6,1 C 2,2 C 87 % 1025,0 hPa 0,0 l/m 0 min 0 min 92 W/m 12,9 km/h (3 Bft) 97,87 %
16.02.2023 11:28 6,2 C 6,1 C 2,2 C 87 % 1025,0 hPa 0,0 l/m 0 min 0 min 91 W/m 6,4 km/h (2 Bft) 97,87 %
16.02.2023 11:30 6,2 C 6,1 C 2,2 C 87 % 1025,0 hPa 0,0 l/m 0 min 0 min 84 W/m 3,2 km/h (1 Bft) 97,83 %
16.02.2023 11:32 6,3 C 6,1 C 2,8 C 87 % 1025,0 hPa 0,0 l/m 0 min 0 min 78 W/m 6,4 km/h (2 Bft) 95,74 %
16.02.2023 11:34 6,3 C 6,1 C 2,8 C 87 % 1025,0 hPa 0,0 l/m 0 min 0 min 80 W/m 6,4 km/h (2 Bft) 97,87 %
16.02.2023 11:36 6,3 C 6,1 C 2,8 C 87 % 1025,1 hPa 0,0 l/m 0 min 0 min 84 W/m 6,4 km/h (2 Bft) 97,87 %
16.02.2023 11:38 6,4 C 6,7 C 2,8 C 87 % 1025,0 hPa 0,0 l/m 0 min 0 min 88 W/m 3,2 km/h (1 Bft) 97,87 %
16.02.2023 11:40 6,4 C 6,7 C 2,8 C 87 % 1025,0 hPa 0,0 l/m 0 min 0 min 94 W/m 9,7 km/h (2 Bft) 97,87 %
16.02.2023 11:42 6,4 C 6,7 C 2,8 C 87 % 1025,0 hPa 0,0 l/m 0 min 0 min 105 W/m 12,9 km/h (3 Bft) 97,87 %
16.02.2023 11:44 6,5 C 6,7 C 2,8 C 87 % 1025,0 hPa 0,0 l/m 0 min 0 min 118 W/m 12,9 km/h (3 Bft) 97,83 %
16.02.2023 11:46 6,5 C 6,7 C 2,8 C 87 % 1025,0 hPa 0,0 l/m 0 min 0 min 134 W/m 6,4 km/h (2 Bft) 97,87 %
16.02.2023 11:48 6,6 C 7,2 C 2,8 C 87 % 1025,0 hPa 0,0 l/m 0 min 0 min 150 W/m 12,9 km/h (3 Bft) 97,87 %
16.02.2023 11:50 6,6 C 7,2 C 3,3 C 87 % 1025,0 hPa 0,0 l/m 0 min 0 min 159 W/m 12,9 km/h (3 Bft) 95,74 %
16.02.2023 11:52 6,7 C 7,2 C 3,3 C 87 % 1025,0 hPa 0,0 l/m 0 min 0 min 164 W/m 6,4 km/h (2 Bft) 97,87 %
16.02.2023 11:54 6,7 C 7,2 C 3,3 C 87 % 1025,0 hPa 0,0 l/m 0 min 0 min 164 W/m 12,9 km/h (3 Bft) 97,87 %
16.02.2023 11:56 6,8 C 7,8 C 3,3 C 87 % 1025,0 hPa 0,0 l/m 0 min 0 min 161 W/m 12,9 km/h (3 Bft) 91,49 %
16.02.2023 11:58 6,8 C 7,8 C 3,3 C 87 % 1024,9 hPa 0,0 l/m 0 min 0 min 160 W/m 12,9 km/h (3 Bft) 100,00 %
16.02.2023 12:00 6,9 C 7,8 C 3,3 C 87 % 1024,8 hPa 0,0 l/m 0 min 0 min 161 W/m 9,7 km/h (2 Bft) 100,00 %
16.02.2023 12:02 7,0 C 7,8 C 3,3 C 87 % 1024,8 hPa 0,0 l/m 0 min 0 min 163 W/m 6,4 km/h (2 Bft) 100,00 %
16.02.2023 12:04 7,1 C 7,8 C 3,9 C 87 % 1024,7 hPa 0,0 l/m 0 min 0 min 161 W/m 9,7 km/h (2 Bft) 100,00 %
16.02.2023 12:07 7,2 C 7,8 C 3,9 C 87 % 1024,6 hPa 0,0 l/m 0 min 0 min 163 W/m 12,9 km/h (3 Bft) 100,00 %
16.02.2023 12:08 7,2 C 7,8 C 3,9 C 87 % 1024,6 hPa 0,0 l/m 0 min 0 min 165 W/m 9,7 km/h (2 Bft) 100,00 %
16.02.2023 12:10 7,3 C 7,8 C 3,9 C 87 % 1024,5 hPa 0,0 l/m 0 min 0 min 157 W/m 12,9 km/h (3 Bft) 100,00 %
16.02.2023 12:12 7,3 C 7,8 C 3,9 C 87 % 1024,6 hPa 0,0 l/m 0 min 0 min 143 W/m 9,7 km/h (2 Bft) 100,00 %
16.02.2023 12:14 7,4 C 7,8 C 3,9 C 87 % 1024,5 hPa 0,0 l/m 0 min 0 min 152 W/m 12,9 km/h (3 Bft) 100,00 %
16.02.2023 12:16 7,4 C 7,8 C 3,9 C 87 % 1024,4 hPa 0,0 l/m 0 min 0 min 169 W/m 9,7 km/h (2 Bft) 100,00 %
16.02.2023 12:18 7,6 C 7,8 C 3,9 C 87 % 1024,4 hPa 0,0 l/m 0 min 0 min 176 W/m 9,7 km/h (2 Bft) 97,87 %
16.02.2023 12:20 7,6 C 7,8 C 3,9 C 87 % 1024,4 hPa 0,0 l/m 0 min 0 min 162 W/m 9,7 km/h (2 Bft) 97,83 %
16.02.2023 12:22 7,6 C 7,8 C 3,9 C 87 % 1024,6 hPa 0,0 l/m 0 min 0 min 147 W/m 6,4 km/h (2 Bft) 100,00 %
16.02.2023 12:24 7,7 C 7,8 C 3,9 C 87 % 1024,5 hPa 0,0 l/m 0 min 0 min 136 W/m 12,9 km/h (3 Bft) 100,00 %
16.02.2023 12:26 7,7 C 7,8 C 3,9 C 87 % 1024,6 hPa 0,0 l/m 0 min 0 min 124 W/m 6,4 km/h (2 Bft) 97,87 %
16.02.2023 12:28 7,8 C 7,8 C 3,9 C 87 % 1024,5 hPa 0,0 l/m 0 min 0 min 110 W/m 6,4 km/h (2 Bft) 100,00 %
16.02.2023 12:30 7,8 C 7,8 C 3,9 C 87 % 1024,5 hPa 0,0 l/m 0 min 0 min 95 W/m 6,4 km/h (2 Bft) 100,00 %
16.02.2023 12:32 7,8 C 7,8 C 3,9 C 87 % 1024,4 hPa 0,0 l/m 0 min 0 min 91 W/m 9,7 km/h (2 Bft) 100,00 %
16.02.2023 12:34 7,8 C 7,8 C 3,9 C 87 % 1024,4 hPa 0,0 l/m 0 min 0 min 93 W/m 9,7 km/h (2 Bft) 100,00 %
16.02.2023 12:36 7,8 C 7,8 C 3,3 C 87 % 1024,4 hPa 0,0 l/m 0 min 2 min 101 W/m 6,4 km/h (2 Bft) 95,74 %
16.02.2023 12:38 7,9 C 7,8 C 3,3 C 87 % 1024,3 hPa 0,0 l/m 0 min 0 min 113 W/m 6,4 km/h (2 Bft) 97,87 %
16.02.2023 12:40 7,9 C 7,8 C 3,3 C 87 % 1024,3 hPa 0,0 l/m 0 min 2 min 128 W/m 12,9 km/h (3 Bft) 97,87 %
16.02.2023 12:42 7,9 C 7,8 C 3,3 C 87 % 1024,4 hPa 0,0 l/m 0 min 2 min 129 W/m 12,9 km/h (3 Bft) 97,87 %
16.02.2023 12:44 7,9 C 7,8 C 3,3 C 87 % 1024,4 hPa 0,0 l/m 0 min 2 min 118 W/m 9,7 km/h (2 Bft) 95,74 %
16.02.2023 12:46 7,9 C 7,8 C 3,3 C 87 % 1024,4 hPa 0,0 l/m 0 min 2 min 117 W/m 6,4 km/h (2 Bft) 97,83 %
16.02.2023 12:48 7,9 C 7,8 C 3,3 C 87 % 1024,3 hPa 0,0 l/m 0 min 2 min 129 W/m 6,4 km/h (2 Bft) 97,87 %
16.02.2023 12:50 7,9 C 7,8 C 3,3 C 87 % 1024,3 hPa 0,0 l/m 0 min 2 min 132 W/m 6,4 km/h (2 Bft) 91,49 %
16.02.2023 12:52 8,0 C 7,8 C 3,3 C 88 % 1024,3 hPa 0,0 l/m 0 min 0 min 127 W/m 6,4 km/h (2 Bft) 95,74 %
16.02.2023 12:54 8,0 C 7,8 C 3,3 C 88 % 1024,3 hPa 0,0 l/m 0 min 0 min 121 W/m 12,9 km/h (3 Bft) 93,62 %
16.02.2023 12:56 8,1 C 7,8 C 3,3 C 88 % 1024,4 hPa 0,0 l/m 0 min 0 min 111 W/m 9,7 km/h (2 Bft) 95,74 %
16.02.2023 12:58 8,1 C 7,8 C 3,3 C 88 % 1024,4 hPa 0,0 l/m 0 min 0 min 103 W/m 9,7 km/h (2 Bft) 95,74 %
16.02.2023 13:00 8,1 C 7,8 C 3,3 C 88 % 1024,3 hPa 0,0 l/m 0 min 0 min 104 W/m 3,2 km/h (1 Bft) 95,65 %
16.02.2023 13:02 8,1 C 7,8 C 3,3 C 88 % 1024,1 hPa 0,0 l/m 0 min 0 min 119 W/m 9,7 km/h (2 Bft) 91,49 %
16.02.2023 13:04 8,1 C 7,8 C 3,3 C 88 % 1024,1 hPa 0,0 l/m 0 min 0 min 133 W/m 6,4 km/h (2 Bft) 95,74 %
16.02.2023 13:06 8,1 C 8,3 C 3,3 C 88 % 1024,2 hPa 0,0 l/m 0 min 0 min 131 W/m 12,9 km/h (3 Bft) 95,00 %
16.02.2023 13:08 8,2 C 8,3 C 3,3 C 89 % 1024,1 hPa 0,0 l/m 0 min 0 min 123 W/m 9,7 km/h (2 Bft) 94,29 %
16.02.2023 13:10 8,2 C 8,3 C 3,3 C 89 % 1024,2 hPa 0,0 l/m 0 min 0 min 119 W/m 6,4 km/h (2 Bft) 95,74 %
16.02.2023 13:12 8,2 C 8,3 C 3,9 C 89 % 1024,3 hPa 0,0 l/m 0 min 0 min 117 W/m 3,2 km/h (1 Bft) 95,65 %
16.02.2023 13:14 8,2 C 8,3 C 3,9 C 89 % 1024,2 hPa 0,0 l/m 0 min 0 min 123 W/m 6,4 km/h (2 Bft) 91,49 %
16.02.2023 13:16 8,2 C 8,3 C 3,9 C 89 % 1024,2 hPa 0,0 l/m 0 min 0 min 147 W/m 6,4 km/h (2 Bft) 95,74 %
16.02.2023 13:18 8,3 C 8,3 C 3,9 C 89 % 1024,2 hPa 0,0 l/m 0 min 2 min 152 W/m 9,7 km/h (2 Bft) 95,74 %
16.02.2023 13:20 8,3 C 8,3 C 3,9 C 89 % 1024,2 hPa 0,0 l/m 0 min 2 min 136 W/m 6,4 km/h (2 Bft) 91,49 %
16.02.2023 13:22 8,3 C 8,3 C 3,3 C 89 % 1024,2 hPa 0,2 l/m 0 min 2 min 127 W/m 6,4 km/h (2 Bft) 95,74 %
16.02.2023 13:24 8,4 C 8,3 C 3,3 C 89 % 1024,2 hPa 0,0 l/m 0 min 2 min 131 W/m 9,7 km/h (2 Bft) 100,00 %
16.02.2023 13:26 8,4 C 8,3 C 3,3 C 90 % 1024,2 hPa 0,0 l/m 0 min 2 min 143 W/m 9,7 km/h (2 Bft) 97,83 %
16.02.2023 13:28 8,5 C 8,9 C 3,3 C 90 % 1024,2 hPa 0,0 l/m 0 min 2 min 154 W/m 3,2 km/h (1 Bft) 97,87 %
16.02.2023 13:30 8,6 C 8,9 C 3,3 C 90 % 1024,1 hPa 0,0 l/m 0 min 2 min 157 W/m 6,4 km/h (2 Bft) 97,87 %
16.02.2023 13:32 8,6 C 8,9 C 3,3 C 90 % 1024,1 hPa 0,0 l/m 0 min 0 min 160 W/m 12,9 km/h (3 Bft) 95,92 %
16.02.2023 13:34 8,6 C 8,9 C 3,3 C 90 % 1024,1 hPa 0,0 l/m 0 min 0 min 162 W/m 6,4 km/h (2 Bft) 100,00 %
16.02.2023 13:36 8,7 C 8,9 C 3,3 C 90 % 1024,1 hPa 0,0 l/m 0 min 0 min 162 W/m 6,4 km/h (2 Bft) 100,00 %
16.02.2023 13:38 8,8 C 9,4 C 3,3 C 90 % 1024,1 hPa 0,0 l/m 0 min 0 min 169 W/m 3,2 km/h (1 Bft) 97,87 %
16.02.2023 13:40 8,8 C 9,4 C 3,3 C 90 % 1024,1 hPa 0,0 l/m 0 min 0 min 171 W/m 6,4 km/h (2 Bft) 100,00 %
16.02.2023 13:42 8,8 C 9,4 C 3,3 C 90 % 1024,0 hPa 0,0 l/m 0 min 0 min 158 W/m 9,7 km/h (2 Bft) 97,87 %
16.02.2023 13:44 8,9 C 9,4 C 3,3 C 91 % 1024,0 hPa 0,0 l/m 0 min 0 min 144 W/m 6,4 km/h (2 Bft) 100,00 %
16.02.2023 13:46 8,9 C 9,4 C 3,3 C 91 % 1024,0 hPa 0,0 l/m 0 min 0 min 145 W/m 6,4 km/h (2 Bft) 100,00 %
16.02.2023 13:48 9,1 C 9,4 C 3,3 C 91 % 1024,0 hPa 0,0 l/m 0 min 0 min 143 W/m 9,7 km/h (2 Bft) 100,00 %
16.02.2023 13:50 9,1 C 9,4 C 4,4 C 90 % 1023,9 hPa 0,0 l/m 0 min 0 min 135 W/m 16,1 km/h (3 Bft) 97,87 %
16.02.2023 13:52 9,1 C 9,4 C 4,4 C 90 % 1023,8 hPa 0,0 l/m 0 min 0 min 124 W/m 9,7 km/h (2 Bft) 97,87 %
16.02.2023 13:54 9,1 C 9,4 C 4,4 C 90 % 1023,7 hPa 0,0 l/m 0 min 0 min 119 W/m 12,9 km/h (3 Bft) 100,00 %
16.02.2023 13:56 9,2 C 9,4 C 4,4 C 90 % 1023,6 hPa 0,0 l/m 0 min 0 min 118 W/m 12,9 km/h (3 Bft) 97,87 %
16.02.2023 13:58 9,2 C 9,4 C 4,4 C 89 % 1023,6 hPa 0,0 l/m 0 min 0 min 128 W/m 9,7 km/h (2 Bft) 97,87 %
16.02.2023 14:00 9,3 C 9,4 C 4,4 C 89 % 1023,6 hPa 0,0 l/m 0 min 0 min 140 W/m 6,4 km/h (2 Bft) 95,74 %
16.02.2023 14:02 9,3 C 9,4 C 4,4 C 89 % 1023,6 hPa 0,0 l/m 0 min 0 min 155 W/m 16,1 km/h (3 Bft) 97,83 %
16.02.2023 14:04 9,3 C 10,0 C 4,4 C 88 % 1023,7 hPa 0,0 l/m 0 min 0 min 165 W/m 12,9 km/h (3 Bft) 98,00 %
16.02.2023 14:06 9,4 C 10,0 C 4,4 C 88 % 1023,7 hPa 0,0 l/m 0 min 0 min 160 W/m 6,4 km/h (2 Bft) 97,87 %
16.02.2023 14:08 9,5 C 10,0 C 4,4 C 88 % 1023,7 hPa 0,0 l/m 0 min 0 min 156 W/m 6,4 km/h (2 Bft) 97,87 %
16.02.2023 14:10 9,6 C 10,0 C 4,4 C 88 % 1023,7 hPa 0,0 l/m 0 min 0 min 166 W/m 9,7 km/h (2 Bft) 94,29 %
16.02.2023 14:12 9,6 C 10,0 C 4,4 C 88 % 1023,7 hPa 0,0 l/m 0 min 0 min 168 W/m 6,4 km/h (2 Bft) 97,87 %
16.02.2023 14:14 9,6 C 10,6 C 4,4 C 88 % 1023,7 hPa 0,0 l/m 0 min 0 min 167 W/m 9,7 km/h (2 Bft) 97,87 %
16.02.2023 14:16 9,7 C 10,0 C 5,0 C 88 % 1023,7 hPa 0,0 l/m 0 min 0 min 158 W/m 9,7 km/h (2 Bft) 97,83 %
16.02.2023 14:18 9,8 C 10,0 C 5,0 C 88 % 1023,8 hPa 0,0 l/m 0 min 0 min 135 W/m 9,7 km/h (2 Bft) 95,74 %
16.02.2023 14:20 9,8 C 10,0 C 5,0 C 88 % 1023,7 hPa 0,0 l/m 0 min 0 min 105 W/m 6,4 km/h (2 Bft) 97,87 %
16.02.2023 14:22 9,8 C 10,0 C 4,4 C 87 % 1023,7 hPa 0,0 l/m 0 min 0 min 93 W/m 6,4 km/h (2 Bft) 97,87 %
16.02.2023 14:24 9,8 C 10,0 C 4,4 C 87 % 1023,6 hPa 0,0 l/m 0 min 0 min 82 W/m 16,1 km/h (3 Bft) 97,87 %
16.02.2023 14:26 9,8 C 9,4 C 4,4 C 87 % 1023,6 hPa 0,0 l/m 0 min 0 min 75 W/m 12,9 km/h (3 Bft) 97,87 %
16.02.2023 14:28 9,8 C 9,4 C 4,4 C 87 % 1023,5 hPa 0,0 l/m 0 min 0 min 69 W/m 19,3 km/h (3 Bft) 95,74 %
16.02.2023 14:30 9,8 C 9,4 C 5,0 C 86 % 1023,5 hPa 0,0 l/m 0 min 0 min 68 W/m 12,9 km/h (3 Bft) 97,83 %
16.02.2023 14:32 9,8 C 9,4 C 5,0 C 86 % 1023,4 hPa 0,0 l/m 0 min 0 min 78 W/m 9,7 km/h (2 Bft) 97,87 %
16.02.2023 14:34 9,8 C 9,4 C 5,0 C 86 % 1023,3 hPa 0,0 l/m 0 min 0 min 94 W/m 9,7 km/h (2 Bft) 97,87 %
16.02.2023 14:36 9,8 C 10,0 C 5,0 C 86 % 1023,3 hPa 0,0 l/m 0 min 0 min 117 W/m 12,9 km/h (3 Bft) 97,87 %
16.02.2023 14:38 9,9 C 10,0 C 5,0 C 86 % 1023,3 hPa 0,0 l/m 0 min 0 min 110 W/m 12,9 km/h (3 Bft) 97,87 %
16.02.2023 14:40 9,9 C 10,0 C 5,6 C 86 % 1023,3 hPa 0,0 l/m 0 min 0 min 123 W/m 16,1 km/h (3 Bft) 97,87 %
16.02.2023 14:42 9,9 C 10,6 C 5,6 C 86 % 1023,3 hPa 0,0 l/m 0 min 0 min 179 W/m 16,1 km/h (3 Bft) 97,87 %
16.02.2023 14:44 10,0 C 10,6 C 5,6 C 86 % 1023,2 hPa 0,0 l/m 2 min 0 min 219 W/m 9,7 km/h (2 Bft) 100,00 %
16.02.2023 14:46 10,1 C 11,7 C 6,1 C 87 % 1023,2 hPa 0,0 l/m 2 min 0 min 310 W/m 6,4 km/h (2 Bft) 100,00 %
16.02.2023 14:48 10,2 C 12,2 C 6,1 C 87 % 1023,1 hPa 0,0 l/m 2 min 0 min 290 W/m 12,9 km/h (3 Bft) 100,00 %
16.02.2023 14:50 10,3 C 12,2 C 6,1 C 87 % 1023,2 hPa 0,0 l/m 2 min 0 min 268 W/m 16,1 km/h (3 Bft) 97,87 %
16.02.2023 14:52 10,4 C 12,8 C 6,7 C 87 % 1023,2 hPa 0,0 l/m 2 min 0 min 245 W/m 6,4 km/h (2 Bft) 97,87 %
16.02.2023 14:54 10,6 C 12,8 C 6,7 C 86 % 1023,1 hPa 0,0 l/m 2 min 0 min 242 W/m 6,4 km/h (2 Bft) 96,43 %
16.02.2023 14:56 10,7 C 12,8 C 6,7 C 86 % 1023,1 hPa 0,0 l/m 2 min 0 min 257 W/m 16,1 km/h (3 Bft) 95,74 %
16.02.2023 14:58 10,8 C 12,2 C 6,7 C 86 % 1023,1 hPa 0,0 l/m 2 min 0 min 263 W/m 16,1 km/h (3 Bft) 97,83 %
16.02.2023 15:00 10,9 C 12,8 C 6,7 C 85 % 1023,0 hPa 0,0 l/m 2 min 0 min 234 W/m 9,7 km/h (2 Bft) 97,87 %
16.02.2023 15:02 10,9 C 12,2 C 6,7 C 85 % 1023,0 hPa 0,0 l/m 2 min 0 min 194 W/m 19,3 km/h (3 Bft) 95,74 %
16.02.2023 15:04 11,1 C 12,2 C 6,7 C 84 % 1023,0 hPa 0,0 l/m 2 min 0 min 186 W/m 16,1 km/h (3 Bft) 95,74 %
16.02.2023 15:06 11,1 C 12,2 C 6,7 C 84 % 1022,9 hPa 0,0 l/m 2 min 0 min 187 W/m 19,3 km/h (3 Bft) 97,87 %
16.02.2023 15:08 11,2 C 12,2 C 6,7 C 84 % 1022,9 hPa 0,0 l/m 2 min 0 min 192 W/m 19,3 km/h (3 Bft) 97,87 %
16.02.2023 15:10 11,2 C 11,7 C 6,7 C 83 % 1022,9 hPa 0,0 l/m 2 min 0 min 190 W/m 22,5 km/h (4 Bft) 97,87 %
16.02.2023 15:12 11,2 C 12,2 C 6,7 C 83 % 1022,9 hPa 0,0 l/m 2 min 0 min 201 W/m 12,9 km/h (3 Bft) 95,65 %
16.02.2023 15:14 11,2 C 12,2 C 6,7 C 83 % 1022,9 hPa 0,0 l/m 2 min 0 min 193 W/m 19,3 km/h (3 Bft) 95,74 %
16.02.2023 15:16 11,2 C 12,2 C 6,7 C 84 % 1022,8 hPa 0,0 l/m 2 min 0 min 179 W/m 12,9 km/h (3 Bft) 100,00 %
16.02.2023 15:18 11,3 C 12,2 C 6,7 C 83 % 1022,8 hPa 0,0 l/m 2 min 0 min 224 W/m 16,1 km/h (3 Bft) 97,87 %
16.02.2023 15:20 11,3 C 12,2 C 6,7 C 83 % 1022,8 hPa 0,0 l/m 2 min 0 min 245 W/m 12,9 km/h (3 Bft) 95,74 %
16.02.2023 15:22 11,3 C 12,2 C 6,7 C 83 % 1022,7 hPa 0,0 l/m 2 min 0 min 225 W/m 6,4 km/h (2 Bft) 95,74 %
16.02.2023 15:24 11,4 C 12,2 C 6,7 C 83 % 1022,7 hPa 0,0 l/m 2 min 0 min 161 W/m 19,3 km/h (3 Bft) 93,48 %
16.02.2023 15:26 11,4 C 11,7 C 6,7 C 83 % 1022,7 hPa 0,0 l/m 0 min 0 min 149 W/m 19,3 km/h (3 Bft) 95,74 %
16.02.2023 15:28 11,4 C 11,7 C 6,7 C 82 % 1022,7 hPa 0,0 l/m 2 min 0 min 179 W/m 9,7 km/h (2 Bft) 95,74 %
16.02.2023 15:30 11,4 C 11,7 C 6,7 C 83 % 1022,7 hPa 0,0 l/m 2 min 0 min 184 W/m 6,4 km/h (2 Bft) 95,74 %
16.02.2023 15:32 11,4 C 12,2 C 6,7 C 83 % 1022,7 hPa 0,0 l/m 2 min 0 min 182 W/m 6,4 km/h (2 Bft) 97,87 %
16.02.2023 15:34 11,5 C 12,2 C 6,7 C 83 % 1022,6 hPa 0,0 l/m 2 min 0 min 174 W/m 9,7 km/h (2 Bft) 97,87 %
16.02.2023 15:36 11,6 C 12,2 C 6,7 C 83 % 1022,6 hPa 0,0 l/m 2 min 0 min 188 W/m 9,7 km/h (2 Bft) 95,65 %
16.02.2023 15:38 11,6 C 12,2 C 6,7 C 83 % 1022,6 hPa 0,0 l/m 2 min 0 min 199 W/m 22,5 km/h (4 Bft) 97,87 %
16.02.2023 15:40 11,6 C 12,2 C 6,7 C 83 % 1022,6 hPa 0,0 l/m 2 min 0 min 173 W/m 19,3 km/h (3 Bft) 95,74 %
16.02.2023 15:42 11,6 C 12,2 C 6,7 C 82 % 1022,6 hPa 0,0 l/m 2 min 0 min 190 W/m 16,1 km/h (3 Bft) 95,74 %
16.02.2023 15:44 11,6 C 12,2 C 6,7 C 82 % 1022,6 hPa 0,0 l/m 2 min 0 min 173 W/m 16,1 km/h (3 Bft) 97,87 %
16.02.2023 15:46 11,6 C 12,2 C 6,7 C 82 % 1022,6 hPa 0,0 l/m 2 min 0 min 172 W/m 22,5 km/h (4 Bft) 97,87 %
16.02.2023 15:48 11,6 C 12,2 C 6,7 C 82 % 1022,6 hPa 0,0 l/m 2 min 0 min 185 W/m 19,3 km/h (3 Bft) 97,87 %
16.02.2023 15:50 11,6 C 12,2 C 6,7 C 82 % 1022,6 hPa 0,0 l/m 2 min 0 min 172 W/m 22,5 km/h (4 Bft) 93,48 %
16.02.2023 15:52 11,6 C 12,2 C 6,7 C 82 % 1022,6 hPa 0,0 l/m 2 min 0 min 163 W/m 12,9 km/h (3 Bft) 97,87 %
16.02.2023 15:54 11,7 C 12,2 C 7,2 C 82 % 1022,5 hPa 0,0 l/m 2 min 0 min 198 W/m 12,9 km/h (3 Bft) 97,87 %
16.02.2023 15:56 11,7 C 11,7 C 7,2 C 82 % 1022,4 hPa 0,0 l/m 2 min 0 min 197 W/m 16,1 km/h (3 Bft) 97,87 %
16.02.2023 15:58 11,7 C 11,7 C 7,2 C 82 % 1022,4 hPa 0,0 l/m 2 min 0 min 183 W/m 16,1 km/h (3 Bft) 97,87 %
16.02.2023 16:00 11,7 C 11,7 C 6,7 C 82 % 1022,3 hPa 0,0 l/m 2 min 0 min 147 W/m 16,1 km/h (3 Bft) 93,62 %
16.02.2023 16:02 11,8 C 11,7 C 6,7 C 82 % 1022,3 hPa 0,0 l/m 2 min 0 min 129 W/m 16,1 km/h (3 Bft) 97,83 %
16.02.2023 16:04 11,8 C 11,7 C 6,7 C 82 % 1022,2 hPa 0,0 l/m 2 min 0 min 134 W/m 12,9 km/h (3 Bft) 95,74 %
16.02.2023 16:06 11,8 C 11,7 C 6,7 C 82 % 1022,2 hPa 0,0 l/m 0 min 0 min 107 W/m 19,3 km/h (3 Bft) 93,62 %
16.02.2023 16:08 11,8 C 11,7 C 6,7 C 82 % 1022,2 hPa 0,0 l/m 0 min 0 min 89 W/m 16,1 km/h (3 Bft) 91,49 %
16.02.2023 16:10 11,8 C 11,7 C 6,7 C 82 % 1022,1 hPa 0,0 l/m 0 min 0 min 86 W/m 19,3 km/h (3 Bft) 54,35 %
16.02.2023 16:12 11,7 C 11,7 C 6,7 C 82 % 1022,1 hPa 0,0 l/m 0 min 0 min 90 W/m 16,1 km/h (3 Bft) 100,00 %
16.02.2023 16:14 11,7 C 11,7 C 6,7 C 82 % 1022,0 hPa 0,0 l/m 2 min 0 min 126 W/m 22,5 km/h (4 Bft) 100,00 %
16.02.2023 16:16 11,7 C 11,7 C 6,7 C 82 % 1022,0 hPa 0,0 l/m 2 min 0 min 158 W/m 22,5 km/h (4 Bft) 100,00 %
16.02.2023 16:18 11,7 C 11,7 C 6,7 C 82 % 1022,0 hPa 0,0 l/m 2 min 0 min 155 W/m 9,7 km/h (2 Bft) 97,87 %
16.02.2023 16:20 11,8 C 11,7 C 7,2 C 82 % 1022,1 hPa 0,0 l/m 2 min 0 min 116 W/m 16,1 km/h (3 Bft) 100,00 %
16.02.2023 16:22 11,8 C 11,7 C 6,7 C 82 % 1022,0 hPa 0,0 l/m 0 min 0 min 86 W/m 9,7 km/h (2 Bft) 97,87 %
16.02.2023 16:24 11,8 C 11,7 C 6,7 C 82 % 1022,0 hPa 0,0 l/m 0 min 0 min 78 W/m 9,7 km/h (2 Bft) 100,00 %
16.02.2023 16:26 11,8 C 11,7 C 6,7 C 82 % 1022,0 hPa 0,0 l/m 0 min 0 min 76 W/m 19,3 km/h (3 Bft) 100,00 %
16.02.2023 16:28 11,8 C 11,7 C 6,7 C 81 % 1022,0 hPa 0,0 l/m 0 min 0 min 78 W/m 19,3 km/h (3 Bft) 100,00 %
16.02.2023 16:30 11,8 C 11,7 C 6,7 C 81 % 1022,0 hPa 0,0 l/m 0 min 0 min 86 W/m 16,1 km/h (3 Bft) 100,00 %
16.02.2023 16:32 11,8 C 11,7 C 6,7 C 81 % 1022,1 hPa 0,0 l/m 2 min 0 min 91 W/m 16,1 km/h (3 Bft) 100,00 %
16.02.2023 16:34 11,8 C 11,7 C 6,7 C 81 % 1022,1 hPa 0,0 l/m 2 min 0 min 90 W/m 12,9 km/h (3 Bft) 100,00 %
16.02.2023 16:36 11,8 C 11,7 C 6,7 C 81 % 1022,1 hPa 0,0 l/m 2 min 0 min 88 W/m 9,7 km/h (2 Bft) 97,87 %
16.02.2023 16:38 11,8 C 11,7 C 6,7 C 81 % 1022,2 hPa 0,0 l/m 2 min 0 min 85 W/m 16,1 km/h (3 Bft) 100,00 %
16.02.2023 16:40 11,8 C 11,7 C 6,7 C 81 % 1022,2 hPa 0,0 l/m 2 min 0 min 81 W/m 16,1 km/h (3 Bft) 100,00 %
16.02.2023 16:42 11,8 C 11,7 C 7,2 C 81 % 1022,1 hPa 0,0 l/m 0 min 0 min 74 W/m 16,1 km/h (3 Bft) 100,00 %
16.02.2023 16:44 11,8 C 11,7 C 7,2 C 81 % 1022,2 hPa 0,0 l/m 0 min 0 min 68 W/m 9,7 km/h (2 Bft) 100,00 %
16.02.2023 16:46 11,8 C 11,1 C 6,7 C 81 % 1022,2 hPa 0,0 l/m 0 min 0 min 58 W/m 9,7 km/h (2 Bft) 97,87 %
16.02.2023 16:48 11,8 C 11,1 C 6,7 C 81 % 1022,2 hPa 0,0 l/m 0 min 0 min 53 W/m 16,1 km/h (3 Bft) 100,00 %
16.02.2023 16:50 11,7 C 11,1 C 6,7 C 81 % 1022,1 hPa 0,0 l/m 0 min 0 min 50 W/m 19,3 km/h (3 Bft) 97,87 %
16.02.2023 16:52 11,7 C 11,1 C 6,7 C 81 % 1022,1 hPa 0,0 l/m 0 min 0 min 47 W/m 9,7 km/h (2 Bft) 97,87 %
16.02.2023 16:54 11,7 C 11,1 C 6,7 C 81 % 1022,1 hPa 0,0 l/m 0 min 0 min 43 W/m 9,7 km/h (2 Bft) 97,87 %
16.02.2023 16:56 11,7 C 11,1 C 6,7 C 81 % 1022,1 hPa 0,0 l/m 0 min 0 min 38 W/m 6,4 km/h (2 Bft) 97,83 %
16.02.2023 16:58 11,7 C 11,1 C 6,7 C 81 % 1022,1 hPa 0,0 l/m 0 min 0 min 35 W/m 9,7 km/h (2 Bft) 95,74 %
16.02.2023 17:00 11,7 C 11,1 C 6,7 C 81 % 1022,1 hPa 0,0 l/m 0 min 0 min 32 W/m 16,1 km/h (3 Bft) 97,87 %
16.02.2023 17:02 11,7 C 11,1 C 6,7 C 81 % 1022,1 hPa 0,0 l/m 0 min 0 min 30 W/m 12,9 km/h (3 Bft) 93,62 %
16.02.2023 17:04 11,7 C 11,1 C 6,7 C 81 % 1022,1 hPa 0,0 l/m 0 min 0 min 29 W/m 12,9 km/h (3 Bft) 97,87 %
16.02.2023 17:06 11,7 C 11,1 C 6,7 C 81 % 1022,1 hPa 0,0 l/m 0 min 0 min 28 W/m 19,3 km/h (3 Bft) 95,83 %
16.02.2023 17:08 11,6 C 11,1 C 6,7 C 81 % 1022,1 hPa 0,0 l/m 0 min 0 min 30 W/m 19,3 km/h (3 Bft) 97,83 %
16.02.2023 17:10 11,6 C 11,1 C 6,7 C 80 % 1022,1 hPa 0,0 l/m 0 min 0 min 32 W/m 16,1 km/h (3 Bft) 97,87 %
16.02.2023 17:12 11,6 C 11,1 C 6,7 C 80 % 1022,0 hPa 0,0 l/m 0 min 0 min 32 W/m 16,1 km/h (3 Bft) 95,74 %
16.02.2023 17:14 11,6 C 11,1 C 6,7 C 80 % 1022,1 hPa 0,0 l/m 0 min 0 min 31 W/m 12,9 km/h (3 Bft) 95,74 %
16.02.2023 17:16 11,6 C 11,1 C 6,7 C 80 % 1022,0 hPa 0,0 l/m 0 min 0 min 27 W/m 16,1 km/h (3 Bft) 93,62 %
16.02.2023 17:18 11,6 C 11,1 C 6,7 C 80 % 1022,0 hPa 0,0 l/m 0 min 0 min 23 W/m 12,9 km/h (3 Bft) 95,74 %
16.02.2023 17:20 11,6 C 11,1 C 6,7 C 80 % 1022,0 hPa 0,0 l/m 0 min 0 min 21 W/m 12,9 km/h (3 Bft) 97,83 %
16.02.2023 17:22 11,6 C 11,1 C 6,7 C 80 % 1022,0 hPa 0,0 l/m 0 min 0 min 19 W/m 16,1 km/h (3 Bft) 95,74 %
16.02.2023 17:24 11,6 C 10,6 C 6,7 C 80 % 1022,0 hPa 0,0 l/m 0 min 0 min 19 W/m 9,7 km/h (2 Bft) 95,74 %
16.02.2023 17:26 11,6 C 10,6 C 6,7 C 80 % 1022,0 hPa 0,0 l/m 0 min 0 min 18 W/m 3,2 km/h (1 Bft) 93,62 %
16.02.2023 17:28 11,6 C 10,6 C 6,7 C 80 % 1022,0 hPa 0,0 l/m 0 min 0 min 18 W/m 6,4 km/h (2 Bft) 93,62 %
16.02.2023 17:30 11,6 C 10,6 C 6,7 C 80 % 1022,0 hPa 0,0 l/m 0 min 0 min 16 W/m 9,7 km/h (2 Bft) 100,00 %
16.02.2023 17:32 11,5 C 10,6 C 6,7 C 80 % 1022,0 hPa 0,0 l/m 0 min 0 min 14 W/m 9,7 km/h (2 Bft) 97,87 %
16.02.2023 17:34 11,5 C 10,6 C 6,7 C 80 % 1022,0 hPa 0,0 l/m 0 min 0 min 13 W/m 9,7 km/h (2 Bft) 93,48 %
16.02.2023 17:36 11,5 C 10,6 C 6,7 C 80 % 1022,0 hPa 0,0 l/m 0 min 0 min 12 W/m 9,7 km/h (2 Bft) 97,87 %
16.02.2023 17:38 11,4 C 10,6 C 6,7 C 80 % 1022,0 hPa 0,0 l/m 0 min 0 min 11 W/m 9,7 km/h (2 Bft) 97,87 %
16.02.2023 17:40 11,4 C 10,6 C 6,1 C 80 % 1021,9 hPa 0,0 l/m 0 min 0 min 9 W/m 6,4 km/h (2 Bft) 95,74 %
16.02.2023 17:42 11,4 C 10,6 C 6,1 C 80 % 1021,9 hPa 0,0 l/m 0 min 0 min 7 W/m 6,4 km/h (2 Bft) 97,87 %
16.02.2023 17:44 11,4 C 10,6 C 6,1 C 80 % 1021,9 hPa 0,0 l/m 0 min 0 min 5 W/m 16,1 km/h (3 Bft) 100,00 %
16.02.2023 17:46 11,4 C 10,6 C 6,1 C 80 % 1021,9 hPa 0,0 l/m 0 min 0 min 2 W/m 12,9 km/h (3 Bft) 100,00 %
16.02.2023 17:48 11,3 C 10,6 C 6,1 C 80 % 1021,9 hPa 0,0 l/m 0 min 0 min 0 W/m 6,4 km/h (2 Bft) 100,00 %
16.02.2023 17:50 11,3 C 10,6 C 6,1 C 80 % 1021,9 hPa 0,0 l/m 0 min 0 min 0 W/m 19,3 km/h (3 Bft) 100,00 %
16.02.2023 17:52 11,3 C 10,6 C 6,1 C 80 % 1021,9 hPa 0,0 l/m 0 min 0 min 0 W/m 16,1 km/h (3 Bft) 63,83 %
16.02.2023 17:54 11,3 C 10,6 C 6,7 C 80 % 1021,9 hPa 0,0 l/m 0 min 0 min 0 W/m 22,5 km/h (4 Bft) 89,36 %
16.02.2023 17:56 11,3 C 10,6 C 6,7 C 79 % 1021,8 hPa 0,0 l/m 0 min 0 min 0 W/m 19,3 km/h (3 Bft) 82,61 %
16.02.2023 17:58 11,3 C 10,6 C 6,7 C 79 % 1021,8 hPa 0,0 l/m 0 min 0 min 0 W/m 9,7 km/h (2 Bft) 95,74 %
16.02.2023 18:00 11,3 C 10,6 C 6,7 C 79 % 1021,8 hPa 0,0 l/m 0 min 0 min 0 W/m 16,1 km/h (3 Bft) 95,74 %
16.02.2023 18:02 11,3 C 10,6 C 6,7 C 79 % 1021,8 hPa 0,0 l/m 0 min 0 min 0 W/m 19,3 km/h (3 Bft) 95,74 %
16.02.2023 18:04 11,3 C 10,6 C 6,7 C 79 % 1021,8 hPa 0,0 l/m 0 min 0 min 0 W/m 12,9 km/h (3 Bft) 97,87 %
16.02.2023 18:07 11,3 C 10,6 C 6,1 C 79 % 1021,8 hPa 0,0 l/m 0 min 3 min 0 W/m 12,9 km/h (3 Bft) 96,10 %
16.02.2023 18:08 11,3 C 10,6 C 6,1 C 79 % 1021,8 hPa 0,0 l/m 0 min 1 min 0 W/m 9,7 km/h (2 Bft) 100,00 %
16.02.2023 18:12 11,2 C 10,6 C 6,1 C 80 % 1021,8 hPa 0,0 l/m 0 min 0 min 0 W/m 16,1 km/h (3 Bft) 98,15 %
16.02.2023 18:14 11,2 C 10,6 C 6,1 C 80 % 1021,8 hPa 0,0 l/m 0 min 0 min 0 W/m 16,1 km/h (3 Bft) 95,74 %
16.02.2023 18:16 11,2 C 10,6 C 6,1 C 80 % 1021,8 hPa 0,0 l/m 0 min 0 min 0 W/m 6,4 km/h (2 Bft) 95,74 %
16.02.2023 18:18 11,2 C 10,6 C 6,1 C 80 % 1021,8 hPa 0,0 l/m 0 min 0 min 0 W/m 9,7 km/h (2 Bft) 97,83 %
16.02.2023 18:20 11,2 C 10,6 C 6,1 C 80 % 1021,9 hPa 0,0 l/m 0 min 2 min 0 W/m 6,4 km/h (2 Bft) 95,74 %
16.02.2023 18:22 11,2 C 10,6 C 6,1 C 80 % 1021,8 hPa 0,0 l/m 0 min 0 min 0 W/m 12,9 km/h (3 Bft) 97,87 %
16.02.2023 18:24 11,2 C 10,6 C 6,1 C 80 % 1021,9 hPa 0,0 l/m 0 min 0 min 0 W/m 22,5 km/h (4 Bft) 97,87 %
16.02.2023 18:26 11,2 C 10,6 C 6,1 C 80 % 1021,8 hPa 0,0 l/m 0 min 0 min 0 W/m 16,1 km/h (3 Bft) 93,62 %
16.02.2023 18:28 11,2 C 10,6 C 6,1 C 79 % 1021,8 hPa 0,0 l/m 0 min 0 min 0 W/m 12,9 km/h (3 Bft) 97,87 %
16.02.2023 18:30 11,2 C 10,6 C 6,1 C 79 % 1021,7 hPa 0,0 l/m 0 min 0 min 0 W/m 16,1 km/h (3 Bft) 97,87 %
16.02.2023 18:32 11,2 C 10,6 C 6,1 C 79 % 1021,7 hPa 0,0 l/m 0 min 0 min 0 W/m 6,4 km/h (2 Bft) 95,65 %
16.02.2023 18:34 11,1 C 10,6 C 6,1 C 79 % 1021,7 hPa 0,0 l/m 0 min 0 min 0 W/m 12,9 km/h (3 Bft) 97,87 %
16.02.2023 18:36 11,1 C 10,6 C 6,1 C 80 % 1021,7 hPa 0,0 l/m 0 min 0 min 0 W/m 12,9 km/h (3 Bft) 95,74 %
16.02.2023 18:38 11,1 C 10,0 C 6,1 C 80 % 1021,7 hPa 0,0 l/m 0 min 0 min 0 W/m 6,4 km/h (2 Bft) 95,74 %
16.02.2023 18:40 11,1 C 10,0 C 6,1 C 80 % 1021,8 hPa 0,0 l/m 0 min 0 min 0 W/m 16,1 km/h (3 Bft) 100,00 %
16.02.2023 18:42 11,1 C 10,0 C 6,1 C 80 % 1021,8 hPa 0,0 l/m 0 min 0 min 0 W/m 12,9 km/h (3 Bft) 97,87 %
16.02.2023 18:44 11,1 C 10,6 C 6,1 C 80 % 1021,8 hPa 0,0 l/m 0 min 0 min 0 W/m 12,9 km/h (3 Bft) 100,00 %
16.02.2023 18:46 11,1 C 10,6 C 6,1 C 80 % 1021,8 hPa 0,0 l/m 0 min 0 min 0 W/m 12,9 km/h (3 Bft) 93,48 %
16.02.2023 18:48 11,1 C 10,6 C 6,1 C 80 % 1021,8 hPa 0,0 l/m 0 min 0 min 0 W/m 32,2 km/h (5 Bft) 93,62 %
16.02.2023 18:50 11,1 C 10,6 C 6,1 C 80 % 1021,8 hPa 0,0 l/m 0 min 0 min 0 W/m 16,1 km/h (3 Bft) 100,00 %
16.02.2023 18:52 11,1 C 10,6 C 6,1 C 80 % 1021,9 hPa 0,0 l/m 0 min 0 min 0 W/m 19,3 km/h (3 Bft) 97,87 %
16.02.2023 18:54 11,1 C 10,6 C 6,1 C 80 % 1021,9 hPa 0,0 l/m 0 min 0 min 0 W/m 22,5 km/h (4 Bft) 100,00 %
16.02.2023 18:56 11,2 C 10,6 C 6,1 C 80 % 1021,8 hPa 0,0 l/m 0 min 0 min 0 W/m 19,3 km/h (3 Bft) 100,00 %
16.02.2023 18:58 11,2 C 10,6 C 6,1 C 80 % 1021,8 hPa 0,0 l/m 0 min 0 min 0 W/m 16,1 km/h (3 Bft) 97,87 %
16.02.2023 19:00 11,2 C 10,6 C 6,1 C 81 % 1021,8 hPa 0,0 l/m 0 min 0 min 0 W/m 19,3 km/h (3 Bft) 96,23 %
16.02.2023 19:02 11,2 C 10,6 C 6,1 C 81 % 1021,8 hPa 0,0 l/m 0 min 0 min 0 W/m 19,3 km/h (3 Bft) 100,00 %
16.02.2023 19:04 11,2 C 10,6 C 6,1 C 81 % 1021,8 hPa 0,0 l/m 0 min 0 min 0 W/m 16,1 km/h (3 Bft) 95,74 %
16.02.2023 19:06 11,1 C 10,6 C 6,1 C 81 % 1021,8 hPa 0,0 l/m 0 min 0 min 0 W/m 19,3 km/h (3 Bft) 97,92 %
16.02.2023 19:08 11,1 C 10,6 C 6,1 C 81 % 1021,8 hPa 0,0 l/m 0 min 0 min 0 W/m 25,7 km/h (4 Bft) 100,00 %
16.02.2023 19:10 11,1 C 10,0 C 6,1 C 81 % 1021,9 hPa 0,0 l/m 0 min 0 min 0 W/m 16,1 km/h (3 Bft) 97,83 %
16.02.2023 19:12 11,1 C 10,6 C 6,1 C 82 % 1021,9 hPa 0,0 l/m 0 min 0 min 0 W/m 29,0 km/h (5 Bft) 95,74 %
16.02.2023 19:14 11,1 C 10,6 C 6,1 C 82 % 1021,9 hPa 0,0 l/m 0 min 0 min 0 W/m 19,3 km/h (3 Bft) 97,87 %
16.02.2023 19:16 11,1 C 10,0 C 6,1 C 82 % 1022,0 hPa 0,0 l/m 0 min 0 min 0 W/m 12,9 km/h (3 Bft) 95,74 %
16.02.2023 19:18 11,1 C 10,0 C 6,1 C 82 % 1022,0 hPa 0,0 l/m 0 min 0 min 0 W/m 25,7 km/h (4 Bft) 97,87 %
16.02.2023 19:20 11,1 C 10,6 C 6,1 C 82 % 1022,0 hPa 0,0 l/m 0 min 0 min 0 W/m 29,0 km/h (5 Bft) 95,74 %
16.02.2023 19:22 11,1 C 10,0 C 6,1 C 82 % 1022,0 hPa 0,0 l/m 0 min 0 min 0 W/m 19,3 km/h (3 Bft) 89,36 %
16.02.2023 19:24 11,1 C 10,0 C 6,1 C 82 % 1022,0 hPa 0,0 l/m 0 min 0 min 0 W/m 25,7 km/h (4 Bft) 93,48 %
16.02.2023 19:26 11,1 C 10,0 C 6,7 C 82 % 1022,0 hPa 0,0 l/m 0 min 0 min 0 W/m 29,0 km/h (5 Bft) 95,74 %
16.02.2023 19:28 11,1 C 10,0 C 6,1 C 82 % 1021,9 hPa 0,0 l/m 0 min 0 min 0 W/m 19,3 km/h (3 Bft) 95,74 %
16.02.2023 19:30 11,1 C 10,0 C 6,1 C 82 % 1022,0 hPa 0,0 l/m 0 min 0 min 0 W/m 22,5 km/h (4 Bft) 95,74 %
16.02.2023 19:32 11,0 C 10,0 C 6,1 C 82 % 1022,0 hPa 0,0 l/m 0 min 0 min 0 W/m 22,5 km/h (4 Bft) 95,74 %
16.02.2023 19:34 11,0 C 10,0 C 6,1 C 82 % 1022,0 hPa 0,0 l/m 0 min 0 min 0 W/m 29,0 km/h (5 Bft) 93,62 %
16.02.2023 19:36 11,0 C 10,0 C 6,1 C 82 % 1022,0 hPa 0,0 l/m 0 min 0 min 0 W/m 16,1 km/h (3 Bft) 93,48 %
16.02.2023 19:38 10,9 C 10,0 C 6,1 C 83 % 1022,1 hPa 0,0 l/m 0 min 0 min 0 W/m 25,7 km/h (4 Bft) 95,74 %
16.02.2023 19:40 10,9 C 10,0 C 6,1 C 83 % 1022,1 hPa 0,0 l/m 0 min 0 min 0 W/m 29,0 km/h (5 Bft) 95,74 %
16.02.2023 19:42 10,9 C 10,0 C 6,1 C 83 % 1022,0 hPa 0,0 l/m 0 min 0 min 0 W/m 25,7 km/h (4 Bft) 94,59 %
16.02.2023 19:44 10,8 C 10,0 C 6,1 C 83 % 1022,0 hPa 0,0 l/m 0 min 0 min 0 W/m 25,7 km/h (4 Bft) 97,87 %
16.02.2023 19:46 10,8 C 10,0 C 6,1 C 83 % 1022,0 hPa 0,0 l/m 0 min 0 min 0 W/m 19,3 km/h (3 Bft) 100,00 %
16.02.2023 19:48 10,8 C 10,0 C 6,1 C 84 % 1022,1 hPa 0,0 l/m 0 min 0 min 0 W/m 9,7 km/h (2 Bft) 91,49 %
16.02.2023 19:50 10,8 C 10,0 C 6,1 C 84 % 1022,1 hPa 0,0 l/m 0 min 0 min 0 W/m 19,3 km/h (3 Bft) 93,62 %
16.02.2023 19:52 10,7 C 10,0 C 6,1 C 84 % 1022,1 hPa 0,0 l/m 0 min 0 min 0 W/m 19,3 km/h (3 Bft) 97,87 %
16.02.2023 19:54 10,7 C 10,0 C 6,1 C 84 % 1022,1 hPa 0,0 l/m 0 min 0 min 0 W/m 19,3 km/h (3 Bft) 97,96 %
16.02.2023 19:56 10,7 C 10,0 C 6,1 C 84 % 1022,0 hPa 0,0 l/m 0 min 0 min 0 W/m 19,3 km/h (3 Bft) 97,83 %
16.02.2023 19:58 10,7 C 10,0 C 6,1 C 84 % 1022,1 hPa 0,0 l/m 0 min 0 min 0 W/m 19,3 km/h (3 Bft) 97,87 %
16.02.2023 20:00 10,6 C 10,0 C 6,1 C 84 % 1022,0 hPa 0,0 l/m 0 min 0 min 0 W/m 22,5 km/h (4 Bft) 97,87 %
16.02.2023 20:02 10,6 C 10,0 C 6,1 C 84 % 1022,0 hPa 0,0 l/m 0 min 0 min 0 W/m 22,5 km/h (4 Bft) 97,87 %
16.02.2023 20:04 10,6 C 10,0 C 6,1 C 84 % 1022,0 hPa 0,0 l/m 0 min 0 min 0 W/m 16,1 km/h (3 Bft) 97,87 %
16.02.2023 20:06 10,6 C 9,4 C 6,1 C 85 % 1022,0 hPa 0,0 l/m 0 min 0 min 0 W/m 32,2 km/h (5 Bft) 100,00 %
16.02.2023 20:08 10,5 C 9,4 C 5,6 C 85 % 1022,1 hPa 0,0 l/m 0 min 0 min 0 W/m 29,0 km/h (5 Bft) 100,00 %
16.02.2023 20:10 10,4 C 9,4 C 5,6 C 85 % 1022,0 hPa 0,0 l/m 0 min 0 min 0 W/m 35,4 km/h (5 Bft) 98,00 %
16.02.2023 20:12 10,4 C 9,4 C 5,6 C 85 % 1022,0 hPa 0,0 l/m 0 min 0 min 0 W/m 25,7 km/h (4 Bft) 100,00 %
16.02.2023 20:14 10,3 C 9,4 C 5,6 C 86 % 1022,0 hPa 0,0 l/m 0 min 0 min 0 W/m 25,7 km/h (4 Bft) 100,00 %
16.02.2023 20:16 10,3 C 9,4 C 5,6 C 86 % 1022,0 hPa 0,0 l/m 0 min 0 min 0 W/m 19,3 km/h (3 Bft) 97,87 %
16.02.2023 20:18 10,3 C 9,4 C 5,6 C 86 % 1021,9 hPa 0,0 l/m 0 min 0 min 0 W/m 25,7 km/h (4 Bft) 100,00 %
16.02.2023 20:20 10,2 C 9,4 C 5,6 C 86 % 1021,9 hPa 0,0 l/m 0 min 0 min 0 W/m 29,0 km/h (5 Bft) 100,00 %
16.02.2023 20:22 10,2 C 9,4 C 5,6 C 86 % 1021,9 hPa 0,0 l/m 0 min 0 min 0 W/m 25,7 km/h (4 Bft) 100,00 %
16.02.2023 20:24 10,2 C 9,4 C 5,6 C 87 % 1021,9 hPa 0,0 l/m 0 min 0 min 0 W/m 25,7 km/h (4 Bft) 97,87 %
16.02.2023 20:26 10,2 C 9,4 C 5,6 C 87 % 1021,9 hPa 0,0 l/m 0 min 0 min 0 W/m 22,5 km/h (4 Bft) 97,87 %
16.02.2023 20:28 10,1 C 9,4 C 5,6 C 87 % 1021,9 hPa 0,0 l/m 0 min 0 min 0 W/m 29,0 km/h (5 Bft) 100,00 %
16.02.2023 20:30 10,1 C 9,4 C 5,6 C 87 % 1022,0 hPa 0,0 l/m 0 min 0 min 0 W/m 22,5 km/h (4 Bft) 97,87 %
16.02.2023 20:32 10,1 C 9,4 C 5,6 C 87 % 1021,9 hPa 0,0 l/m 0 min 0 min 0 W/m 19,3 km/h (3 Bft) 95,74 %
16.02.2023 20:34 10,1 C 9,4 C 5,6 C 87 % 1022,0 hPa 0,0 l/m 0 min 0 min 0 W/m 25,7 km/h (4 Bft) 95,65 %
16.02.2023 20:36 10,1 C 9,4 C 5,6 C 87 % 1022,0 hPa 0,0 l/m 0 min 0 min 0 W/m 22,5 km/h (4 Bft) 100,00 %
16.02.2023 20:38 10,1 C 9,4 C 5,6 C 87 % 1022,0 hPa 0,0 l/m 0 min 0 min 0 W/m 16,1 km/h (3 Bft) 100,00 %
16.02.2023 20:40 10,0 C 9,4 C 5,6 C 87 % 1021,9 hPa 0,0 l/m 0 min 0 min 0 W/m 29,0 km/h (5 Bft) 97,87 %
16.02.2023 20:42 10,0 C 9,4 C 5,6 C 87 % 1022,0 hPa 0,0 l/m 0 min 0 min 0 W/m 19,3 km/h (3 Bft) 95,74 %
16.02.2023 20:44 10,0 C 9,4 C 5,6 C 87 % 1021,9 hPa 0,0 l/m 0 min 0 min 0 W/m 19,3 km/h (3 Bft) 97,87 %
16.02.2023 20:46 10,0 C 9,4 C 5,6 C 87 % 1022,0 hPa 0,0 l/m 0 min 0 min 0 W/m 25,7 km/h (4 Bft) 97,83 %
16.02.2023 20:48 10,0 C 9,4 C 5,6 C 87 % 1022,0 hPa 0,0 l/m 0 min 0 min 0 W/m 32,2 km/h (5 Bft) 97,87 %
16.02.2023 20:50 10,0 C 9,4 C 5,6 C 87 % 1022,0 hPa 0,0 l/m 0 min 0 min 0 W/m 12,9 km/h (3 Bft) 95,74 %
16.02.2023 20:52 10,0 C 9,4 C 5,6 C 87 % 1022,1 hPa 0,0 l/m 0 min 0 min 0 W/m 25,7 km/h (4 Bft) 95,74 %
16.02.2023 20:54 10,0 C 9,4 C 5,6 C 87 % 1022,0 hPa 0,0 l/m 0 min 0 min 0 W/m 19,3 km/h (3 Bft) 95,74 %
16.02.2023 20:56 10,0 C 9,4 C 5,6 C 87 % 1022,0 hPa 0,0 l/m 0 min 0 min 0 W/m 25,7 km/h (4 Bft) 95,74 %
16.02.2023 20:58 10,0 C 9,4 C 5,6 C 87 % 1022,0 hPa 0,0 l/m 0 min 0 min 0 W/m 22,5 km/h (4 Bft) 95,65 %
16.02.2023 21:00 10,0 C 9,4 C 5,6 C 87 % 1022,1 hPa 0,0 l/m 0 min 0 min 0 W/m 25,7 km/h (4 Bft) 97,87 %
16.02.2023 21:02 10,0 C 9,4 C 5,6 C 87 % 1022,0 hPa 0,0 l/m 0 min 0 min 0 W/m 35,4 km/h (5 Bft) 95,74 %
16.02.2023 21:04 10,0 C 9,4 C 5,6 C 87 % 1022,0 hPa 0,0 l/m 0 min 0 min 0 W/m 25,7 km/h (4 Bft) 95,74 %
16.02.2023 21:06 10,0 C 9,4 C 5,6 C 87 % 1022,0 hPa 0,0 l/m 0 min 0 min 0 W/m 29,0 km/h (5 Bft) 97,87 %
16.02.2023 21:08 10,0 C 9,4 C 5,6 C 87 % 1022,0 hPa 0,0 l/m 0 min 0 min 0 W/m 22,5 km/h (4 Bft) 95,74 %
16.02.2023 21:10 10,0 C 9,4 C 5,6 C 87 % 1021,9 hPa 0,0 l/m 0 min 0 min 0 W/m 22,5 km/h (4 Bft) 95,74 %
16.02.2023 21:12 10,0 C 9,4 C 5,6 C 87 % 1022,0 hPa 0,0 l/m 0 min 0 min 0 W/m 22,5 km/h (4 Bft) 95,12 %
16.02.2023 21:14 10,0 C 9,4 C 5,6 C 87 % 1021,9 hPa 0,0 l/m 0 min 0 min 0 W/m 35,4 km/h (5 Bft) 93,62 %
16.02.2023 21:16 10,0 C 9,4 C 5,6 C 87 % 1022,0 hPa 0,0 l/m 0 min 0 min 0 W/m 19,3 km/h (3 Bft) 95,74 %
16.02.2023 21:18 10,0 C 9,4 C 5,6 C 87 % 1021,9 hPa 0,0 l/m 0 min 0 min 0 W/m 29,0 km/h (5 Bft) 93,62 %
16.02.2023 21:20 10,1 C 9,4 C 5,6 C 87 % 1021,9 hPa 0,0 l/m 0 min 0 min 0 W/m 22,5 km/h (4 Bft) 95,74 %
16.02.2023 21:22 10,1 C 9,4 C 5,6 C 87 % 1021,8 hPa 0,0 l/m 0 min 0 min 0 W/m 19,3 km/h (3 Bft) 95,74 %
16.02.2023 21:24 10,1 C 9,4 C 5,6 C 87 % 1021,9 hPa 0,0 l/m 0 min 0 min 0 W/m 22,5 km/h (4 Bft) 95,65 %
16.02.2023 21:26 10,1 C 9,4 C 5,6 C 87 % 1021,8 hPa 0,0 l/m 0 min 0 min 0 W/m 19,3 km/h (3 Bft) 93,62 %
16.02.2023 21:28 10,1 C 9,4 C 5,6 C 87 % 1021,8 hPa 0,0 l/m 0 min 0 min 0 W/m 32,2 km/h (5 Bft) 95,74 %
16.02.2023 21:30 10,1 C 9,4 C 5,6 C 87 % 1021,7 hPa 0,0 l/m 0 min 0 min 0 W/m 25,7 km/h (4 Bft) 93,62 %
16.02.2023 21:32 10,1 C 9,4 C 5,6 C 87 % 1021,8 hPa 0,0 l/m 0 min 0 min 0 W/m 29,0 km/h (5 Bft) 95,74 %
16.02.2023 21:34 10,1 C 9,4 C 5,6 C 87 % 1021,8 hPa 0,0 l/m 0 min 0 min 0 W/m 29,0 km/h (5 Bft) 97,87 %
16.02.2023 21:36 10,1 C 9,4 C 5,6 C 87 % 1021,7 hPa 0,0 l/m 0 min 0 min 0 W/m 16,1 km/h (3 Bft) 95,65 %
16.02.2023 21:38 10,1 C 9,4 C 5,6 C 87 % 1021,6 hPa 0,0 l/m 0 min 0 min 0 W/m 12,9 km/h (3 Bft) 97,87 %
16.02.2023 21:40 10,1 C 9,4 C 5,6 C 87 % 1021,6 hPa 0,0 l/m 0 min 0 min 0 W/m 38,6 km/h (5 Bft) 97,92 %
16.02.2023 21:42 10,1 C 9,4 C 5,6 C 88 % 1021,7 hPa 0,0 l/m 0 min 0 min 0 W/m 38,6 km/h (5 Bft) 97,87 %
16.02.2023 21:44 10,1 C 9,4 C 5,6 C 88 % 1021,6 hPa 0,0 l/m 0 min 0 min 0 W/m 25,7 km/h (4 Bft) 100,00 %
16.02.2023 21:46 10,1 C 9,4 C 5,6 C 88 % 1021,6 hPa 0,0 l/m 0 min 0 min 0 W/m 38,6 km/h (5 Bft) 100,00 %
16.02.2023 21:48 10,1 C 9,4 C 5,6 C 88 % 1021,5 hPa 0,0 l/m 0 min 0 min 0 W/m 32,2 km/h (5 Bft) 100,00 %
16.02.2023 21:50 10,1 C 9,4 C 5,6 C 88 % 1021,5 hPa 0,0 l/m 0 min 0 min 0 W/m 35,4 km/h (5 Bft) 95,74 %
16.02.2023 21:52 10,1 C 9,4 C 5,6 C 89 % 1021,5 hPa 0,0 l/m 0 min 0 min 0 W/m 25,7 km/h (4 Bft) 100,00 %
16.02.2023 21:54 10,1 C 9,4 C 5,6 C 89 % 1021,5 hPa 0,0 l/m 0 min 0 min 0 W/m 25,7 km/h (4 Bft) 97,87 %
16.02.2023 21:56 10,1 C 9,4 C 5,6 C 89 % 1021,6 hPa 0,0 l/m 0 min 0 min 0 W/m 19,3 km/h (3 Bft) 98,00 %
16.02.2023 21:58 10,1 C 9,4 C 5,6 C 89 % 1021,6 hPa 0,0 l/m 0 min 0 min 0 W/m 35,4 km/h (5 Bft) 97,92 %
16.02.2023 22:00 10,1 C 9,4 C 5,6 C 89 % 1021,6 hPa 0,0 l/m 0 min 0 min 0 W/m 25,7 km/h (4 Bft) 95,83 %
16.02.2023 22:02 10,1 C 9,4 C 5,6 C 89 % 1021,7 hPa 0,0 l/m 0 min 0 min 0 W/m 29,0 km/h (5 Bft) 95,74 %
16.02.2023 22:04 10,1 C 9,4 C 5,6 C 89 % 1021,6 hPa 0,0 l/m 0 min 0 min 0 W/m 32,2 km/h (5 Bft) 97,83 %
16.02.2023 22:06 10,1 C 9,4 C 5,6 C 89 % 1021,6 hPa 0,0 l/m 0 min 0 min 0 W/m 25,7 km/h (4 Bft) 97,87 %
16.02.2023 22:08 10,1 C 9,4 C 5,6 C 89 % 1021,6 hPa 0,0 l/m 0 min 0 min 0 W/m 16,1 km/h (3 Bft) 97,87 %
16.02.2023 22:10 10,1 C 9,4 C 5,6 C 89 % 1021,6 hPa 0,0 l/m 0 min 0 min 0 W/m 22,5 km/h (4 Bft) 97,87 %
16.02.2023 22:12 10,1 C 9,4 C 5,6 C 89 % 1021,6 hPa 0,0 l/m 0 min 0 min 0 W/m 29,0 km/h (5 Bft) 97,87 %
16.02.2023 22:14 10,1 C 9,4 C 5,6 C 89 % 1021,5 hPa 0,0 l/m 0 min 0 min 0 W/m 19,3 km/h (3 Bft) 95,74 %
16.02.2023 22:16 10,1 C 9,4 C 5,6 C 89 % 1021,6 hPa 0,0 l/m 0 min 0 min 0 W/m 29,0 km/h (5 Bft) 97,83 %
16.02.2023 22:18 10,1 C 9,4 C 5,6 C 89 % 1021,5 hPa 0,0 l/m 0 min 0 min 0 W/m 29,0 km/h (5 Bft) 95,74 %
16.02.2023 22:20 10,1 C 9,4 C 5,6 C 89 % 1021,5 hPa 0,0 l/m 0 min 0 min 0 W/m 22,5 km/h (4 Bft) 93,62 %
16.02.2023 22:22 10,2 C 9,4 C 5,6 C 89 % 1021,5 hPa 0,0 l/m 0 min 0 min 0 W/m 19,3 km/h (3 Bft) 95,74 %
16.02.2023 22:24 10,2 C 9,4 C 6,1 C 89 % 1021,5 hPa 0,0 l/m 0 min 0 min 0 W/m 25,7 km/h (4 Bft) 97,87 %
16.02.2023 22:26 10,2 C 9,4 C 6,1 C 89 % 1021,6 hPa 0,0 l/m 0 min 0 min 0 W/m 32,2 km/h (5 Bft) 95,74 %
16.02.2023 22:28 10,3 C 9,4 C 6,1 C 89 % 1021,5 hPa 0,0 l/m 0 min 0 min 0 W/m 22,5 km/h (4 Bft) 97,87 %
16.02.2023 22:30 10,3 C 9,4 C 6,1 C 89 % 1021,5 hPa 0,0 l/m 0 min 0 min 0 W/m 16,1 km/h (3 Bft) 93,48 %
16.02.2023 22:32 10,3 C 9,4 C 6,1 C 89 % 1021,4 hPa 0,0 l/m 0 min 0 min 0 W/m 29,0 km/h (5 Bft) 95,74 %
16.02.2023 22:34 10,3 C 9,4 C 6,1 C 89 % 1021,5 hPa 0,0 l/m 0 min 0 min 0 W/m 16,1 km/h (3 Bft) 97,87 %
16.02.2023 22:36 10,3 C 9,4 C 6,1 C 89 % 1021,5 hPa 0,0 l/m 0 min 0 min 0 W/m 12,9 km/h (3 Bft) 95,74 %
16.02.2023 22:38 10,3 C 9,4 C 6,1 C 89 % 1021,4 hPa 0,0 l/m 0 min 0 min 0 W/m 32,2 km/h (5 Bft) 97,87 %
16.02.2023 22:40 10,3 C 9,4 C 6,1 C 89 % 1021,5 hPa 0,0 l/m 0 min 0 min 0 W/m 16,1 km/h (3 Bft) 100,00 %
16.02.2023 22:42 10,3 C 9,4 C 6,1 C 89 % 1021,5 hPa 0,0 l/m 0 min 0 min 0 W/m 22,5 km/h (4 Bft) 100,00 %
16.02.2023 22:44 10,3 C 9,4 C 6,1 C 90 % 1021,4 hPa 0,0 l/m 0 min 0 min 0 W/m 22,5 km/h (4 Bft) 100,00 %
16.02.2023 22:46 10,3 C 9,4 C 6,1 C 90 % 1021,4 hPa 0,0 l/m 0 min 0 min 0 W/m 25,7 km/h (4 Bft) 100,00 %
16.02.2023 22:48 10,3 C 9,4 C 6,1 C 90 % 1021,4 hPa 0,0 l/m 0 min 0 min 0 W/m 12,9 km/h (3 Bft) 100,00 %
16.02.2023 22:50 10,3 C 9,4 C 6,1 C 90 % 1021,4 hPa 0,0 l/m 0 min 0 min 0 W/m 29,0 km/h (5 Bft) 97,87 %
16.02.2023 22:52 10,3 C 9,4 C 6,1 C 90 % 1021,4 hPa 0,0 l/m 0 min 0 min 0 W/m 32,2 km/h (5 Bft) 100,00 %
16.02.2023 22:54 10,3 C 9,4 C 6,1 C 90 % 1021,3 hPa 0,0 l/m 0 min 0 min 0 W/m 22,5 km/h (4 Bft) 97,87 %
16.02.2023 22:56 10,4 C 10,0 C 6,1 C 90 % 1021,3 hPa 0,0 l/m 0 min 0 min 0 W/m 25,7 km/h (4 Bft) 100,00 %
16.02.2023 22:58 10,4 C 10,0 C 6,1 C 89 % 1021,4 hPa 0,0 l/m 0 min 0 min 0 W/m 25,7 km/h (4 Bft) 100,00 %
16.02.2023 23:00 10,4 C 10,0 C 6,1 C 89 % 1021,4 hPa 0,0 l/m 0 min 0 min 0 W/m 19,3 km/h (3 Bft) 97,87 %
16.02.2023 23:02 10,4 C 10,0 C 6,1 C 89 % 1021,3 hPa 0,0 l/m 0 min 0 min 0 W/m 19,3 km/h (3 Bft) 97,87 %
16.02.2023 23:04 10,4 C 9,4 C 6,1 C 89 % 1021,4 hPa 0,0 l/m 0 min 0 min 0 W/m 25,7 km/h (4 Bft) 93,62 %
16.02.2023 23:06 10,4 C 10,0 C 6,1 C 89 % 1021,3 hPa 0,0 l/m 0 min 0 min 0 W/m 22,5 km/h (4 Bft) 95,74 %
16.02.2023 23:08 10,4 C 10,0 C 6,1 C 89 % 1021,3 hPa 0,0 l/m 0 min 0 min 0 W/m 16,1 km/h (3 Bft) 93,62 %
16.02.2023 23:10 10,4 C 9,4 C 6,1 C 89 % 1021,3 hPa 0,0 l/m 0 min 0 min 0 W/m 22,5 km/h (4 Bft) 97,87 %
16.02.2023 23:12 10,4 C 9,4 C 6,1 C 89 % 1021,4 hPa 0,0 l/m 0 min 0 min 0 W/m 25,7 km/h (4 Bft) 97,87 %
16.02.2023 23:14 10,4 C 9,4 C 6,1 C 89 % 1021,3 hPa 0,0 l/m 0 min 0 min 0 W/m 12,9 km/h (3 Bft) 97,87 %
16.02.2023 23:16 10,4 C 9,4 C 6,1 C 89 % 1021,4 hPa 0,0 l/m 0 min 0 min 0 W/m 16,1 km/h (3 Bft) 97,87 %
16.02.2023 23:18 10,4 C 9,4 C 6,1 C 89 % 1021,3 hPa 0,0 l/m 0 min 0 min 0 W/m 22,5 km/h (4 Bft) 95,74 %
16.02.2023 23:20 10,4 C 9,4 C 6,1 C 90 % 1021,3 hPa 0,0 l/m 0 min 0 min 0 W/m 16,1 km/h (3 Bft) 97,83 %
16.02.2023 23:22 10,4 C 9,4 C 6,1 C 90 % 1021,4 hPa 0,0 l/m 0 min 0 min 0 W/m 12,9 km/h (3 Bft) 97,87 %
16.02.2023 23:24 10,4 C 9,4 C 6,1 C 90 % 1021,2 hPa 0,0 l/m 0 min 0 min 0 W/m 12,9 km/h (3 Bft) 95,74 %
16.02.2023 23:26 10,4 C 9,4 C 6,1 C 90 % 1021,2 hPa 0,0 l/m 0 min 0 min 0 W/m 16,1 km/h (3 Bft) 97,87 %
16.02.2023 23:28 10,4 C 9,4 C 6,1 C 90 % 1021,3 hPa 0,0 l/m 0 min 0 min 0 W/m 19,3 km/h (3 Bft) 97,87 %
16.02.2023 23:30 10,4 C 9,4 C 6,1 C 90 % 1021,2 hPa 0,0 l/m 0 min 0 min 0 W/m 19,3 km/h (3 Bft) 100,00 %
16.02.2023 23:32 10,4 C 9,4 C 6,1 C 90 % 1021,2 hPa 0,0 l/m 0 min 0 min 0 W/m 12,9 km/h (3 Bft) 95,74 %
16.02.2023 23:34 10,4 C 9,4 C 6,1 C 90 % 1021,1 hPa 0,0 l/m 0 min 0 min 0 W/m 16,1 km/h (3 Bft) 95,74 %
16.02.2023 23:36 10,4 C 9,4 C 6,1 C 90 % 1021,2 hPa 0,0 l/m 0 min 0 min 0 W/m 25,7 km/h (4 Bft) 95,74 %
16.02.2023 23:38 10,4 C 9,4 C 6,1 C 90 % 1021,3 hPa 0,0 l/m 0 min 0 min 0 W/m 12,9 km/h (3 Bft) 97,83 %
16.02.2023 23:40 10,4 C 10,0 C 6,1 C 90 % 1021,2 hPa 0,0 l/m 0 min 0 min 0 W/m 19,3 km/h (3 Bft) 97,87 %
16.02.2023 23:42 10,4 C 10,0 C 6,1 C 90 % 1021,3 hPa 0,0 l/m 0 min 0 min 0 W/m 22,5 km/h (4 Bft) 97,87 %
16.02.2023 23:44 10,4 C 10,0 C 6,1 C 90 % 1021,2 hPa 0,0 l/m 0 min 0 min 0 W/m 19,3 km/h (3 Bft) 95,74 %
16.02.2023 23:46 10,4 C 10,0 C 6,1 C 90 % 1021,2 hPa 0,0 l/m 0 min 0 min 0 W/m 25,7 km/h (4 Bft) 97,87 %
16.02.2023 23:48 10,4 C 10,0 C 6,1 C 89 % 1021,1 hPa 0,0 l/m 0 min 0 min 0 W/m 22,5 km/h (4 Bft) 97,87 %
16.02.2023 23:50 10,5 C 10,0 C 6,1 C 89 % 1021,1 hPa 0,0 l/m 0 min 0 min 0 W/m 16,1 km/h (3 Bft) 95,65 %
16.02.2023 23:52 10,5 C 10,0 C 6,1 C 89 % 1021,1 hPa 0,0 l/m 0 min 0 min 0 W/m 29,0 km/h (5 Bft) 97,92 %
16.02.2023 23:54 10,5 C 10,0 C 6,1 C 89 % 1021,1 hPa 0,0 l/m 0 min 0 min 0 W/m 19,3 km/h (3 Bft) 93,75 %
16.02.2023 23:56 10,5 C 10,0 C 6,1 C 89 % 1021,1 hPa 0,0 l/m 0 min 0 min 0 W/m 16,1 km/h (3 Bft) 97,87 %
16.02.2023 23:58 10,6 C 10,0 C 6,1 C 89 % 1021,1 hPa 0,0 l/m 0 min 0 min 0 W/m 25,7 km/h (4 Bft) 95,74 %
_ Min-Zeit 06:24 04:44 04:20 17:56 23:34 - - - - 00:10 00:02
Minimum _ 2,0 C 1,1 C -1,7 C 79 % 1021,1 hPa - - - - 3,2 km/h (1 Bft) 13,33 %
_ Max-Zeit 16:02 14:52 15:54 05:18 00:02 13:22 09:08 18:07 14:46 21:40 00:10
Maximum _ 11,8 C 12,8 C 7,2 C 93 % 1025,7 hPa 0,2 l/m 2 min 3 min 310 W/m 38,6 km/h
SW (5 Bft)
100,00 %
Durchschnitt _ 6,9 C 6,5 C 2,7 C 88 % 1023,6 hPa #0,2 l/m #2:22 h #34 min. 109 W/m 13,9 km/h (3 Bft) 95,68 %
© 2023 W. Hausmann